AMX29 SAEZ-MMMX
Flight info
| Callsign | AMX29 |
|---|---|
| Flight time | 8h 31m |
| Altitude | 38000 |
| Route | ATOVO1J ATOVO UW5 ROS UT672 ERE UT680 TUC UL550 JCL UL308 ATATU/N0489F400 UL308 OAX UT158 KODEK UT157 LARLO LARLO4A |
| Aircraft | B789/H-SDE1E2E3FGHIJ2J3J4J5M1RWXY/LB1D1 |
Departure
| Time | 2026-05-04 17:09 |
|---|---|
| Airport | Ezeiza International Airport - Ministro Pistarini (SAEZ) |
Arrival
| Time | 2026-05-05 01:40 |
|---|---|
| Airport | Mexico City Benito Juárez International Airport (MMMX) |
| Time | Latitude | Longitude | Altitude | Speed | Heading |
|---|---|---|---|---|---|
| 2026-05-04 16:29 | -34.81606 | -58.53987 | 78 ft | 0 kts | 317° |
| 2026-05-04 16:58 | -34.81642 | -58.53947 | 67 ft | 2 kts | 317° |
| 2026-05-04 16:58 | -34.81654 | -58.53933 | 67 ft | 2 kts | 317° |
| 2026-05-04 16:59 | -34.81680 | -58.53909 | 67 ft | 2 kts | 345° |
| 2026-05-04 17:00 | -34.81725 | -58.53920 | 67 ft | 0 kts | 66° |
| 2026-05-04 17:02 | -34.81709 | -58.53866 | 72 ft | 8 kts | 75° |
| 2026-05-04 17:03 | -34.81709 | -58.53798 | 72 ft | 8 kts | 100° |
| 2026-05-04 17:03 | -34.81756 | -58.53720 | 68 ft | 18 kts | 142° |
| 2026-05-04 17:03 | -34.81887 | -58.53625 | 72 ft | 5 kts | 132° |
| 2026-05-04 17:04 | -34.81935 | -58.53463 | 73 ft | 13 kts | 104° |
| 2026-05-04 17:04 | -34.81997 | -58.53163 | 71 ft | 21 kts | 104° |
| 2026-05-04 17:05 | -34.82063 | -58.52821 | 82 ft | 20 kts | 103° |
| 2026-05-04 17:05 | -34.82131 | -58.52489 | 82 ft | 20 kts | 104° |
| 2026-05-04 17:06 | -34.82198 | -58.52151 | 85 ft | 22 kts | 103° |
| 2026-05-04 17:06 | -34.82233 | -58.51973 | 83 ft | 21 kts | 103° |
| 2026-05-04 17:07 | -34.82300 | -58.51785 | 85 ft | 5 kts | 169° |
| 2026-05-04 17:07 | -34.82325 | -58.51787 | 84 ft | 5 kts | 186° |
| 2026-05-04 17:07 | -34.82329 | -58.51788 | 85 ft | 0 kts | 187° |
| 2026-05-04 17:07 | -34.82338 | -58.51789 | 80 ft | 4 kts | 188° |
| 2026-05-04 17:08 | -34.82377 | -58.51798 | 82 ft | 10 kts | 191° |
| 2026-05-04 17:08 | -34.82522 | -58.51861 | 86 ft | 7 kts | 257° |
| 2026-05-04 17:08 | -34.82492 | -58.52074 | 80 ft | 55 kts | 283° |
| 2026-05-04 17:09 | -34.82362 | -58.52797 | 82 ft | 120 kts | 282° |
| 2026-05-04 17:09 | -34.82142 | -58.54025 | 91 ft | 175 kts | 282° |
| 2026-05-04 17:09 | -34.81882 | -58.55514 | 848 ft | 181 kts | 284° |
| 2026-05-04 17:10 | -34.81281 | -58.58557 | 2548 ft | 205 kts | 285° |
| 2026-05-04 17:10 | -34.78269 | -58.63047 | 5199 ft | 245 kts | 319° |
| 2026-05-04 17:11 | -34.76996 | -58.64462 | 6324 ft | 250 kts | 315° |
| 2026-05-04 17:11 | -34.75758 | -58.65972 | 7341 ft | 256 kts | 314° |
| 2026-05-04 17:11 | -34.73127 | -58.69103 | 9246 ft | 273 kts | 314° |
| 2026-05-04 17:12 | -34.71743 | -58.70730 | 10158 ft | 280 kts | 313° |
| 2026-05-04 17:12 | -34.68691 | -58.74345 | 10995 ft | 333 kts | 313° |
| 2026-05-04 17:13 | -34.63489 | -58.80457 | 13814 ft | 350 kts | 311° |
| 2026-05-04 17:14 | -34.58174 | -58.86715 | 16398 ft | 363 kts | 310° |
| 2026-05-04 17:14 | -34.56349 | -58.88857 | 17230 ft | 367 kts | 310° |
| 2026-05-04 17:14 | -34.52621 | -58.93233 | 18772 ft | 376 kts | 310° |
| 2026-05-04 17:15 | -34.50751 | -58.95425 | 19462 ft | 381 kts | 310° |
| 2026-05-04 17:15 | -34.46894 | -58.99941 | 20801 ft | 390 kts | 310° |
| 2026-05-04 17:16 | -34.42946 | -59.04569 | 22091 ft | 399 kts | 311° |
| 2026-05-04 17:16 | -34.35897 | -59.10539 | 23844 ft | 420 kts | 320° |
| 2026-05-04 17:17 | -34.33449 | -59.12420 | 24351 ft | 424 kts | 321° |
| 2026-05-04 17:17 | -34.25931 | -59.18304 | 25799 ft | 434 kts | 320° |
| 2026-05-04 17:18 | -34.23376 | -59.20293 | 26271 ft | 438 kts | 320° |
| 2026-05-04 17:18 | -34.18208 | -59.24317 | 27186 ft | 445 kts | 320° |
| 2026-05-04 17:19 | -34.12964 | -59.28404 | 28066 ft | 452 kts | 320° |
| 2026-05-04 17:19 | -34.07633 | -59.32546 | 28902 ft | 459 kts | 320° |
| 2026-05-04 17:20 | -34.02247 | -59.36728 | 29699 ft | 465 kts | 320° |
| 2026-05-04 17:20 | -33.96763 | -59.40977 | 30430 ft | 470 kts | 320° |
| 2026-05-04 17:20 | -33.94004 | -59.43112 | 30776 ft | 472 kts | 320° |
| 2026-05-04 17:21 | -33.88434 | -59.47420 | 31455 ft | 476 kts | 319° |
| 2026-05-04 17:21 | -33.82870 | -59.51715 | 32087 ft | 480 kts | 319° |
| 2026-05-04 17:22 | -33.80045 | -59.53894 | 32406 ft | 482 kts | 319° |
| 2026-05-04 17:22 | -33.77211 | -59.56077 | 32707 ft | 484 kts | 319° |
| 2026-05-04 17:23 | -33.68750 | -59.62583 | 34045 ft | 478 kts | 319° |
| 2026-05-04 17:23 | -33.65953 | -59.64733 | 34423 ft | 477 kts | 319° |
| 2026-05-04 17:23 | -33.60380 | -59.69008 | 35156 ft | 474 kts | 319° |
| 2026-05-04 17:24 | -33.57592 | -59.71144 | 35529 ft | 473 kts | 319° |
| 2026-05-04 17:24 | -33.49332 | -59.77464 | 36579 ft | 469 kts | 319° |
| 2026-05-04 17:25 | -33.46583 | -59.79564 | 36909 ft | 468 kts | 319° |
| 2026-05-04 17:25 | -33.41097 | -59.83750 | 37589 ft | 466 kts | 319° |
| 2026-05-04 17:26 | -33.35615 | -59.87931 | 37920 ft | 470 kts | 319° |
| 2026-05-04 17:27 | -33.21939 | -59.98322 | 37939 ft | 465 kts | 319° |
| 2026-05-04 17:28 | -33.11035 | -60.06579 | 37934 ft | 463 kts | 319° |
| 2026-05-04 17:29 | -32.94684 | -60.18915 | 37928 ft | 463 kts | 319° |
| 2026-05-04 17:31 | -32.81072 | -60.29144 | 37926 ft | 463 kts | 320° |
| 2026-05-04 17:32 | -32.67464 | -60.39331 | 37925 ft | 462 kts | 320° |
| 2026-05-04 17:33 | -32.56624 | -60.47422 | 37925 ft | 462 kts | 320° |
| 2026-05-04 17:34 | -32.45714 | -60.55539 | 37923 ft | 463 kts | 320° |
| 2026-05-04 17:35 | -32.32093 | -60.65642 | 37930 ft | 463 kts | 320° |
| 2026-05-04 17:36 | -32.26627 | -60.69685 | 37929 ft | 462 kts | 320° |
| 2026-05-04 17:36 | -32.21171 | -60.73716 | 37923 ft | 462 kts | 320° |
| 2026-05-04 17:37 | -32.15717 | -60.77739 | 37922 ft | 461 kts | 320° |
| 2026-05-04 17:37 | -32.10304 | -60.81727 | 37920 ft | 462 kts | 320° |
| 2026-05-04 17:38 | -32.04846 | -60.85741 | 37917 ft | 462 kts | 320° |
| 2026-05-04 17:38 | -31.99386 | -60.89752 | 37921 ft | 461 kts | 320° |
| 2026-05-04 17:39 | -31.91241 | -60.95725 | 37924 ft | 461 kts | 320° |
| 2026-05-04 17:39 | -31.85786 | -60.99718 | 37924 ft | 462 kts | 320° |
| 2026-05-04 17:40 | -31.80326 | -61.03707 | 37931 ft | 461 kts | 320° |
| 2026-05-04 17:40 | -31.74869 | -61.07692 | 37922 ft | 462 kts | 320° |
| 2026-05-04 17:41 | -31.69405 | -61.11673 | 37920 ft | 462 kts | 320° |
| 2026-05-04 17:41 | -31.63970 | -61.15629 | 37918 ft | 462 kts | 320° |
| 2026-05-04 17:42 | -31.58497 | -61.19606 | 37912 ft | 462 kts | 320° |
| 2026-05-04 17:42 | -31.53028 | -61.23576 | 37910 ft | 462 kts | 320° |
| 2026-05-04 17:43 | -31.47563 | -61.27537 | 37909 ft | 462 kts | 320° |
| 2026-05-04 17:43 | -31.42097 | -61.31493 | 37908 ft | 462 kts | 320° |
| 2026-05-04 17:44 | -31.36625 | -61.35448 | 37905 ft | 462 kts | 320° |
| 2026-05-04 17:44 | -31.31043 | -61.39240 | 37927 ft | 470 kts | 328° |
| 2026-05-04 17:45 | -31.24815 | -61.41764 | 37918 ft | 479 kts | 333° |
| 2026-05-04 17:45 | -31.18469 | -61.44141 | 37914 ft | 479 kts | 333° |
| 2026-05-04 17:46 | -31.12122 | -61.46505 | 37903 ft | 478 kts | 333° |
| 2026-05-04 17:46 | -31.05786 | -61.48869 | 37898 ft | 478 kts | 333° |
| 2026-05-04 17:47 | -30.99448 | -61.51226 | 37898 ft | 478 kts | 333° |
| 2026-05-04 17:47 | -30.94187 | -61.53182 | 37898 ft | 478 kts | 333° |
| 2026-05-04 17:48 | -30.86819 | -61.55916 | 37899 ft | 477 kts | 333° |
| 2026-05-04 17:48 | -30.80496 | -61.58260 | 37912 ft | 477 kts | 333° |
| 2026-05-04 17:49 | -30.74158 | -61.60605 | 37902 ft | 478 kts | 333° |
| 2026-05-04 17:49 | -30.68884 | -61.62554 | 37900 ft | 478 kts | 333° |
| 2026-05-04 17:50 | -30.62545 | -61.64894 | 37899 ft | 478 kts | 333° |
| 2026-05-04 17:50 | -30.56205 | -61.67232 | 37892 ft | 478 kts | 333° |
| 2026-05-04 17:51 | -30.49847 | -61.69584 | 37889 ft | 479 kts | 333° |
| 2026-05-04 17:51 | -30.43483 | -61.71933 | 37890 ft | 479 kts | 333° |
| 2026-05-04 17:52 | -30.37154 | -61.74266 | 37887 ft | 479 kts | 333° |
| 2026-05-04 17:52 | -30.30801 | -61.76606 | 37888 ft | 479 kts | 333° |
| 2026-05-04 17:53 | -30.24455 | -61.78939 | 37882 ft | 478 kts | 333° |
| 2026-05-04 17:53 | -30.18110 | -61.81269 | 37883 ft | 478 kts | 333° |
| 2026-05-04 17:54 | -30.11762 | -61.83598 | 37882 ft | 478 kts | 333° |
| 2026-05-04 17:54 | -30.05461 | -61.85905 | 37883 ft | 477 kts | 333° |
| 2026-05-04 17:55 | -29.99113 | -61.88228 | 37882 ft | 478 kts | 333° |
| 2026-05-04 17:55 | -29.92775 | -61.90542 | 37882 ft | 478 kts | 333° |
| 2026-05-04 17:56 | -29.89697 | -61.91877 | 37906 ft | 467 kts | 325° |
| 2026-05-04 17:56 | -29.86873 | -61.93669 | 37912 ft | 459 kts | 317° |
| 2026-05-04 17:56 | -29.82063 | -61.98320 | 37880 ft | 448 kts | 309° |
| 2026-05-04 17:57 | -29.77552 | -62.03218 | 37888 ft | 448 kts | 308° |
| 2026-05-04 17:57 | -29.73037 | -62.08169 | 37882 ft | 447 kts | 308° |
| 2026-05-04 17:58 | -29.68524 | -62.13084 | 37889 ft | 447 kts | 308° |
| 2026-05-04 17:58 | -29.64034 | -62.17981 | 37885 ft | 447 kts | 308° |
| 2026-05-04 17:59 | -29.59516 | -62.22894 | 37879 ft | 446 kts | 308° |
| 2026-05-04 18:00 | -29.52753 | -62.30244 | 37870 ft | 445 kts | 308° |
| 2026-05-04 18:00 | -29.48245 | -62.35133 | 37864 ft | 446 kts | 308° |
| 2026-05-04 18:01 | -29.43756 | -62.39997 | 37868 ft | 447 kts | 308° |
| 2026-05-04 18:01 | -29.39236 | -62.44885 | 37870 ft | 446 kts | 308° |
| 2026-05-04 18:02 | -29.32468 | -62.52197 | 37858 ft | 446 kts | 309° |
| 2026-05-04 18:02 | -29.27947 | -62.57073 | 37863 ft | 446 kts | 309° |
| 2026-05-04 18:03 | -29.23445 | -62.61921 | 37863 ft | 446 kts | 309° |
| 2026-05-04 18:03 | -29.18921 | -62.66788 | 37858 ft | 445 kts | 309° |
| 2026-05-04 18:04 | -29.14414 | -62.71630 | 37859 ft | 444 kts | 309° |
| 2026-05-04 18:05 | -29.07633 | -62.78903 | 37852 ft | 445 kts | 309° |
| 2026-05-04 18:05 | -29.03148 | -62.83706 | 37861 ft | 445 kts | 309° |
| 2026-05-04 18:06 | -28.96368 | -62.90956 | 37849 ft | 445 kts | 309° |
| 2026-05-04 18:06 | -28.91844 | -62.95784 | 37848 ft | 445 kts | 309° |
| 2026-05-04 18:07 | -28.87303 | -63.00623 | 37849 ft | 446 kts | 309° |
| 2026-05-04 18:07 | -28.82770 | -63.05449 | 37846 ft | 445 kts | 309° |
| 2026-05-04 18:08 | -28.78233 | -63.10274 | 37848 ft | 446 kts | 309° |
| 2026-05-04 18:08 | -28.73687 | -63.15100 | 37852 ft | 446 kts | 309° |
| 2026-05-04 18:09 | -28.64631 | -63.24699 | 37842 ft | 446 kts | 309° |
| 2026-05-04 18:10 | -28.60075 | -63.29520 | 37845 ft | 446 kts | 309° |
| 2026-05-04 18:10 | -28.55551 | -63.34300 | 37848 ft | 446 kts | 309° |
| 2026-05-04 18:11 | -28.51000 | -63.39103 | 37847 ft | 446 kts | 309° |
| 2026-05-04 18:11 | -28.46442 | -63.43907 | 37844 ft | 447 kts | 309° |
| 2026-05-04 18:12 | -28.41878 | -63.48712 | 37845 ft | 447 kts | 309° |
| 2026-05-04 18:12 | -28.37310 | -63.53515 | 37847 ft | 447 kts | 309° |
| 2026-05-04 18:13 | -28.32776 | -63.58276 | 37851 ft | 447 kts | 309° |
| 2026-05-04 18:14 | -28.25930 | -63.65454 | 37846 ft | 447 kts | 309° |
| 2026-05-04 18:14 | -28.21361 | -63.70238 | 37843 ft | 446 kts | 309° |
| 2026-05-04 18:15 | -28.12255 | -63.79754 | 37841 ft | 445 kts | 309° |
| 2026-05-04 18:16 | -28.07696 | -63.84510 | 37834 ft | 445 kts | 309° |
| 2026-05-04 18:16 | -28.03153 | -63.89260 | 37838 ft | 445 kts | 309° |
| 2026-05-04 18:17 | -27.96335 | -63.96395 | 37838 ft | 444 kts | 309° |
| 2026-05-04 18:18 | -27.89550 | -64.03481 | 37832 ft | 444 kts | 309° |
| 2026-05-04 18:18 | -27.85002 | -64.08223 | 37829 ft | 444 kts | 309° |
| 2026-05-04 18:19 | -27.78175 | -64.15331 | 37822 ft | 445 kts | 309° |
| 2026-05-04 18:19 | -27.73621 | -64.20064 | 37824 ft | 445 kts | 309° |
| 2026-05-04 18:20 | -27.69098 | -64.24760 | 37821 ft | 444 kts | 309° |
| 2026-05-04 18:20 | -27.64550 | -64.29477 | 37822 ft | 444 kts | 309° |
| 2026-05-04 18:21 | -27.59992 | -64.34198 | 37821 ft | 444 kts | 310° |
| 2026-05-04 18:21 | -27.55439 | -64.38908 | 37836 ft | 444 kts | 310° |
| 2026-05-04 18:22 | -27.50880 | -64.43620 | 37832 ft | 444 kts | 310° |
| 2026-05-04 18:22 | -27.46350 | -64.48294 | 37829 ft | 443 kts | 310° |
| 2026-05-04 18:23 | -27.41808 | -64.52977 | 37831 ft | 443 kts | 310° |
| 2026-05-04 18:23 | -27.37258 | -64.57664 | 37837 ft | 443 kts | 310° |
| 2026-05-04 18:24 | -27.32697 | -64.62345 | 37835 ft | 443 kts | 310° |
| 2026-05-04 18:24 | -27.28102 | -64.66979 | 37849 ft | 443 kts | 310° |
| 2026-05-04 18:25 | -27.23524 | -64.71624 | 37846 ft | 443 kts | 310° |
| 2026-05-04 18:25 | -27.18972 | -64.76224 | 37842 ft | 442 kts | 310° |
| 2026-05-04 18:26 | -27.14400 | -64.80843 | 37839 ft | 441 kts | 310° |
| 2026-05-04 18:26 | -27.09829 | -64.85455 | 37835 ft | 441 kts | 310° |
| 2026-05-04 18:27 | -27.05255 | -64.90065 | 37849 ft | 442 kts | 310° |
| 2026-05-04 18:27 | -27.00706 | -64.94644 | 37854 ft | 442 kts | 310° |
| 2026-05-04 18:28 | -26.96127 | -64.99248 | 37866 ft | 442 kts | 310° |
| 2026-05-04 18:28 | -26.91553 | -65.03841 | 37874 ft | 441 kts | 310° |
| 2026-05-04 18:29 | -26.86981 | -65.08428 | 37877 ft | 440 kts | 310° |
| 2026-05-04 18:29 | -26.82352 | -65.12874 | 37886 ft | 442 kts | 312° |
| 2026-05-04 18:30 | -26.75207 | -65.19417 | 37882 ft | 442 kts | 312° |
| 2026-05-04 18:31 | -26.70445 | -65.23763 | 37867 ft | 441 kts | 312° |
| 2026-05-04 18:31 | -26.65689 | -65.28107 | 37872 ft | 442 kts | 312° |
| 2026-05-04 18:32 | -26.60928 | -65.32446 | 37866 ft | 441 kts | 312° |
| 2026-05-04 18:32 | -26.56167 | -65.36782 | 37870 ft | 441 kts | 312° |
| 2026-05-04 18:33 | -26.51440 | -65.41082 | 37867 ft | 441 kts | 312° |
| 2026-05-04 18:33 | -26.46668 | -65.45420 | 37871 ft | 444 kts | 312° |
| 2026-05-04 18:34 | -26.41884 | -65.49756 | 37865 ft | 441 kts | 312° |
| 2026-05-04 18:34 | -26.37127 | -65.54074 | 37868 ft | 440 kts | 313° |
| 2026-05-04 18:35 | -26.32403 | -65.58350 | 37862 ft | 440 kts | 313° |
| 2026-05-04 18:35 | -26.27643 | -65.62656 | 37857 ft | 440 kts | 313° |
| 2026-05-04 18:36 | -26.22901 | -65.66939 | 37848 ft | 438 kts | 313° |
| 2026-05-04 18:36 | -26.18167 | -65.71216 | 37896 ft | 438 kts | 313° |
| 2026-05-04 18:37 | -26.13440 | -65.75477 | 37854 ft | 440 kts | 313° |
| 2026-05-04 18:37 | -26.09491 | -65.79033 | 37833 ft | 439 kts | 313° |
| 2026-05-04 18:38 | -26.04748 | -65.83299 | 37852 ft | 438 kts | 313° |
| 2026-05-04 18:38 | -26.00004 | -65.87562 | 37852 ft | 438 kts | 313° |
| 2026-05-04 18:39 | -25.95253 | -65.91827 | 37850 ft | 439 kts | 313° |
| 2026-05-04 18:39 | -25.90502 | -65.96086 | 37859 ft | 439 kts | 313° |
| 2026-05-04 18:40 | -25.85751 | -66.00342 | 37848 ft | 438 kts | 313° |
| 2026-05-04 18:40 | -25.81000 | -66.04592 | 37845 ft | 438 kts | 313° |
| 2026-05-04 18:41 | -25.76282 | -66.08810 | 37840 ft | 438 kts | 313° |
| 2026-05-04 18:41 | -25.71532 | -66.13053 | 37840 ft | 438 kts | 313° |
| 2026-05-04 18:42 | -25.66775 | -66.17297 | 37832 ft | 439 kts | 313° |
| 2026-05-04 18:42 | -25.62019 | -66.21535 | 37837 ft | 438 kts | 314° |
| 2026-05-04 18:43 | -25.57295 | -66.25743 | 37842 ft | 438 kts | 313° |
| 2026-05-04 18:43 | -25.52542 | -66.29971 | 37870 ft | 438 kts | 314° |
| 2026-05-04 18:44 | -25.47771 | -66.34210 | 37880 ft | 439 kts | 314° |
| 2026-05-04 18:44 | -25.43004 | -66.38441 | 37911 ft | 440 kts | 314° |
| 2026-05-04 18:45 | -25.38347 | -66.42799 | 37937 ft | 438 kts | 311° |
| 2026-05-04 18:45 | -25.33564 | -66.47096 | 37964 ft | 447 kts | 315° |
| 2026-05-04 18:46 | -25.28689 | -66.51324 | 37979 ft | 443 kts | 313° |
| 2026-05-04 18:46 | -25.23908 | -66.55572 | 38015 ft | 440 kts | 315° |
| 2026-05-04 18:47 | -25.19138 | -66.59737 | 38049 ft | 441 kts | 314° |
| 2026-05-04 18:47 | -25.14326 | -66.63976 | 38107 ft | 443 kts | 315° |
| 2026-05-04 18:48 | -25.09477 | -66.68219 | 38103 ft | 444 kts | 315° |
| 2026-05-04 18:48 | -25.04632 | -66.72467 | 38091 ft | 443 kts | 315° |
| 2026-05-04 18:49 | -24.99809 | -66.76684 | 38093 ft | 442 kts | 315° |
| 2026-05-04 18:49 | -24.95018 | -66.80873 | 38093 ft | 442 kts | 315° |
| 2026-05-04 18:50 | -24.90193 | -66.85087 | 38100 ft | 442 kts | 315° |
| 2026-05-04 18:50 | -24.85358 | -66.89303 | 38088 ft | 445 kts | 315° |
| 2026-05-04 18:51 | -24.80502 | -66.93536 | 38079 ft | 445 kts | 315° |
| 2026-05-04 18:51 | -24.75647 | -66.97760 | 38074 ft | 444 kts | 315° |
| 2026-05-04 18:52 | -24.70795 | -67.01981 | 38069 ft | 444 kts | 315° |
| 2026-05-04 18:52 | -24.65969 | -67.06173 | 38063 ft | 445 kts | 315° |
| 2026-05-04 18:53 | -24.61111 | -67.10389 | 38044 ft | 444 kts | 315° |
| 2026-05-04 18:53 | -24.56257 | -67.14598 | 38033 ft | 444 kts | 315° |
| 2026-05-04 18:54 | -24.51436 | -67.18773 | 38028 ft | 443 kts | 316° |
| 2026-05-04 18:54 | -24.46595 | -67.22961 | 38030 ft | 442 kts | 316° |
| 2026-05-04 18:55 | -24.41748 | -67.27153 | 38035 ft | 447 kts | 316° |
| 2026-05-04 18:55 | -24.34444 | -67.33454 | 38010 ft | 444 kts | 315° |
| 2026-05-04 18:56 | -24.29577 | -67.37654 | 38023 ft | 446 kts | 316° |
| 2026-05-04 18:56 | -24.24730 | -67.41826 | 38035 ft | 445 kts | 316° |
| 2026-05-04 18:57 | -24.19884 | -67.45994 | 38058 ft | 444 kts | 316° |
| 2026-05-04 18:57 | -24.15018 | -67.50179 | 38070 ft | 445 kts | 316° |
| 2026-05-04 18:58 | -24.10150 | -67.54358 | 38083 ft | 444 kts | 316° |
| 2026-05-04 18:58 | -24.05294 | -67.58526 | 38091 ft | 443 kts | 316° |
| 2026-05-04 18:59 | -24.00443 | -67.62682 | 38097 ft | 441 kts | 317° |
| 2026-05-04 18:59 | -23.95637 | -67.66798 | 38115 ft | 444 kts | 316° |
| 2026-05-04 19:00 | -23.90770 | -67.70960 | 38110 ft | 443 kts | 317° |
| 2026-05-04 19:00 | -23.85922 | -67.75102 | 38110 ft | 443 kts | 316° |
| 2026-05-04 19:01 | -23.81055 | -67.79259 | 38107 ft | 444 kts | 317° |
| 2026-05-04 19:01 | -23.76205 | -67.83393 | 38072 ft | 445 kts | 317° |
| 2026-05-04 19:02 | -23.71329 | -67.87548 | 38074 ft | 444 kts | 317° |
| 2026-05-04 19:02 | -23.66454 | -67.91697 | 38049 ft | 444 kts | 317° |
| 2026-05-04 19:03 | -23.61571 | -67.95850 | 38022 ft | 445 kts | 317° |
| 2026-05-04 19:03 | -23.56715 | -67.99975 | 37995 ft | 445 kts | 317° |
| 2026-05-04 19:04 | -23.51828 | -68.04122 | 37965 ft | 445 kts | 317° |
| 2026-05-04 19:04 | -23.46935 | -68.08272 | 37938 ft | 445 kts | 317° |
| 2026-05-04 19:05 | -23.42033 | -68.12423 | 37919 ft | 446 kts | 317° |
| 2026-05-04 19:05 | -23.37169 | -68.16540 | 37902 ft | 445 kts | 317° |
| 2026-05-04 19:06 | -23.32270 | -68.20681 | 37884 ft | 445 kts | 317° |
| 2026-05-04 19:06 | -23.27378 | -68.24813 | 37877 ft | 445 kts | 317° |
| 2026-05-04 19:07 | -23.22478 | -68.28949 | 37880 ft | 446 kts | 317° |
| 2026-05-04 19:07 | -23.17578 | -68.33079 | 37879 ft | 446 kts | 317° |
| 2026-05-04 19:08 | -23.12673 | -68.37210 | 37882 ft | 446 kts | 317° |
| 2026-05-04 19:08 | -23.07773 | -68.41334 | 37899 ft | 447 kts | 317° |
| 2026-05-04 19:09 | -23.02856 | -68.45466 | 37897 ft | 447 kts | 318° |
| 2026-05-04 19:09 | -22.97938 | -68.49596 | 37903 ft | 447 kts | 318° |
| 2026-05-04 19:10 | -22.93056 | -68.53693 | 37918 ft | 447 kts | 318° |
| 2026-05-04 19:10 | -22.88123 | -68.57828 | 37925 ft | 448 kts | 318° |
| 2026-05-04 19:11 | -22.83184 | -68.61964 | 37922 ft | 448 kts | 318° |
| 2026-05-04 19:11 | -22.78249 | -68.66093 | 37922 ft | 448 kts | 318° |
| 2026-05-04 19:12 | -22.70878 | -68.72253 | 37921 ft | 448 kts | 318° |
| 2026-05-04 19:13 | -22.65947 | -68.76369 | 37928 ft | 446 kts | 318° |
| 2026-05-04 19:13 | -22.61019 | -68.80478 | 37918 ft | 447 kts | 318° |
| 2026-05-04 19:14 | -22.56082 | -68.84592 | 37925 ft | 448 kts | 318° |
| 2026-05-04 19:14 | -22.51130 | -68.88714 | 37924 ft | 449 kts | 319° |
| 2026-05-04 19:15 | -22.46177 | -68.92833 | 37919 ft | 449 kts | 319° |
| 2026-05-04 19:15 | -22.41243 | -68.96932 | 37916 ft | 450 kts | 319° |
| 2026-05-04 19:16 | -22.36287 | -69.01045 | 37920 ft | 449 kts | 319° |
| 2026-05-04 19:16 | -22.31313 | -69.05171 | 37925 ft | 451 kts | 319° |
| 2026-05-04 19:17 | -22.26342 | -69.09289 | 37923 ft | 450 kts | 319° |
| 2026-05-04 19:17 | -22.21370 | -69.13405 | 37921 ft | 450 kts | 319° |
| 2026-05-04 19:18 | -22.16394 | -69.17521 | 37917 ft | 450 kts | 319° |
| 2026-05-04 19:18 | -22.11414 | -69.21635 | 37919 ft | 451 kts | 319° |
| 2026-05-04 19:19 | -22.06457 | -69.25728 | 37910 ft | 451 kts | 319° |
| 2026-05-04 19:19 | -22.01460 | -69.29849 | 37902 ft | 452 kts | 319° |
| 2026-05-04 19:20 | -21.96453 | -69.33975 | 37894 ft | 452 kts | 319° |
| 2026-05-04 19:20 | -21.91480 | -69.38069 | 37886 ft | 452 kts | 319° |
| 2026-05-04 19:21 | -21.86465 | -69.42194 | 37882 ft | 453 kts | 319° |
| 2026-05-04 19:21 | -21.81460 | -69.46307 | 37877 ft | 453 kts | 319° |
| 2026-05-04 19:22 | -21.76479 | -69.50397 | 37883 ft | 452 kts | 319° |
| 2026-05-04 19:22 | -21.71461 | -69.54513 | 37875 ft | 453 kts | 319° |
| 2026-05-04 19:23 | -21.66445 | -69.58624 | 37877 ft | 453 kts | 319° |
| 2026-05-04 19:23 | -21.61433 | -69.62727 | 37887 ft | 453 kts | 319° |
| 2026-05-04 19:24 | -21.56437 | -69.66815 | 37890 ft | 453 kts | 319° |
| 2026-05-04 19:24 | -21.51411 | -69.70922 | 37896 ft | 454 kts | 319° |
| 2026-05-04 19:25 | -21.46382 | -69.75030 | 37905 ft | 454 kts | 319° |
| 2026-05-04 19:25 | -21.41378 | -69.79112 | 37913 ft | 454 kts | 319° |
| 2026-05-04 19:26 | -21.36344 | -69.83216 | 37915 ft | 454 kts | 319° |
| 2026-05-04 19:26 | -21.32160 | -69.86625 | 37926 ft | 454 kts | 319° |
| 2026-05-04 19:27 | -21.27121 | -69.90725 | 37932 ft | 455 kts | 319° |
| 2026-05-04 19:27 | -21.22071 | -69.94832 | 37933 ft | 455 kts | 319° |
| 2026-05-04 19:28 | -21.17030 | -69.98927 | 37936 ft | 455 kts | 319° |
| 2026-05-04 19:28 | -21.11979 | -70.03027 | 37939 ft | 456 kts | 319° |
| 2026-05-04 19:29 | -21.06947 | -70.07108 | 37946 ft | 456 kts | 319° |
| 2026-05-04 19:29 | -21.01885 | -70.11210 | 37952 ft | 456 kts | 319° |
| 2026-05-04 19:30 | -20.96804 | -70.15324 | 37953 ft | 457 kts | 319° |
| 2026-05-04 19:30 | -20.91763 | -70.19401 | 37949 ft | 457 kts | 319° |
| 2026-05-04 19:31 | -20.86685 | -70.23506 | 37951 ft | 457 kts | 319° |
| 2026-05-04 19:31 | -20.81606 | -70.27607 | 37947 ft | 457 kts | 319° |
| 2026-05-04 19:32 | -20.76565 | -70.31674 | 37943 ft | 457 kts | 319° |
| 2026-05-04 19:32 | -20.71487 | -70.35767 | 37944 ft | 457 kts | 319° |
| 2026-05-04 19:33 | -20.66392 | -70.39871 | 37942 ft | 458 kts | 319° |
| 2026-05-04 19:33 | -20.61307 | -70.43963 | 37941 ft | 458 kts | 319° |
| 2026-05-04 19:34 | -20.56244 | -70.48034 | 37943 ft | 458 kts | 319° |
| 2026-05-04 19:34 | -20.51148 | -70.52127 | 37942 ft | 458 kts | 320° |
| 2026-05-04 19:35 | -20.46056 | -70.56214 | 37939 ft | 458 kts | 320° |
| 2026-05-04 19:35 | -20.40967 | -70.60296 | 37940 ft | 457 kts | 320° |
| 2026-05-04 19:36 | -20.35882 | -70.64371 | 37938 ft | 457 kts | 320° |
| 2026-05-04 19:36 | -20.30797 | -70.68442 | 37940 ft | 458 kts | 320° |
| 2026-05-04 19:37 | -20.25716 | -70.72506 | 37943 ft | 458 kts | 320° |
| 2026-05-04 19:37 | -20.20614 | -70.76584 | 37940 ft | 458 kts | 320° |
| 2026-05-04 19:38 | -20.15517 | -70.80655 | 37938 ft | 458 kts | 320° |
| 2026-05-04 19:38 | -20.10419 | -70.84723 | 37942 ft | 458 kts | 320° |
| 2026-05-04 19:39 | -20.05354 | -70.88761 | 37944 ft | 458 kts | 320° |
| 2026-05-04 19:39 | -20.00256 | -70.92822 | 37941 ft | 457 kts | 320° |
| 2026-05-04 19:40 | -19.95156 | -70.96881 | 37940 ft | 457 kts | 320° |
| 2026-05-04 19:40 | -19.90049 | -71.00942 | 37940 ft | 458 kts | 320° |
| 2026-05-04 19:41 | -19.84949 | -71.04995 | 37939 ft | 458 kts | 320° |
| 2026-05-04 19:41 | -19.79875 | -71.09025 | 37938 ft | 458 kts | 320° |
| 2026-05-04 19:42 | -19.74761 | -71.13081 | 37938 ft | 458 kts | 320° |
| 2026-05-04 19:42 | -19.69645 | -71.17137 | 37939 ft | 459 kts | 320° |
| 2026-05-04 19:43 | -19.64529 | -71.21189 | 37947 ft | 459 kts | 320° |
| 2026-05-04 19:43 | -19.59411 | -71.25239 | 37942 ft | 458 kts | 320° |
| 2026-05-04 19:44 | -19.54334 | -71.29254 | 37953 ft | 457 kts | 320° |
| 2026-05-04 19:44 | -19.49222 | -71.33293 | 37938 ft | 458 kts | 320° |
| 2026-05-04 19:45 | -19.44106 | -71.37332 | 37952 ft | 459 kts | 320° |
| 2026-05-04 19:45 | -19.38984 | -71.41372 | 37956 ft | 458 kts | 320° |
| 2026-05-04 19:46 | -19.33893 | -71.45386 | 37954 ft | 460 kts | 320° |
| 2026-05-04 19:46 | -19.28754 | -71.49433 | 37951 ft | 461 kts | 320° |
| 2026-05-04 19:47 | -19.23605 | -71.53484 | 37946 ft | 460 kts | 320° |
| 2026-05-04 19:47 | -19.18459 | -71.57531 | 37942 ft | 460 kts | 320° |
| 2026-05-04 19:48 | -19.13338 | -71.61554 | 37955 ft | 461 kts | 320° |
| 2026-05-04 19:48 | -19.08180 | -71.65604 | 37950 ft | 462 kts | 320° |
| 2026-05-04 19:49 | -19.03012 | -71.69658 | 37952 ft | 462 kts | 320° |
| 2026-05-04 19:49 | -18.97876 | -71.73684 | 37942 ft | 462 kts | 320° |
| 2026-05-04 19:50 | -18.92704 | -71.77735 | 37945 ft | 463 kts | 320° |
| 2026-05-04 19:50 | -18.87523 | -71.81789 | 37944 ft | 463 kts | 320° |
| 2026-05-04 19:51 | -18.82367 | -71.85822 | 37939 ft | 463 kts | 320° |
| 2026-05-04 19:51 | -18.77178 | -71.89876 | 37937 ft | 464 kts | 320° |
| 2026-05-04 19:52 | -18.71983 | -71.93931 | 37946 ft | 463 kts | 320° |
| 2026-05-04 19:52 | -18.66805 | -71.97971 | 37944 ft | 462 kts | 320° |
| 2026-05-04 19:53 | -18.61646 | -72.01993 | 37941 ft | 464 kts | 320° |
| 2026-05-04 19:53 | -18.56449 | -72.06041 | 37943 ft | 464 kts | 320° |
| 2026-05-04 19:54 | -18.51247 | -72.10090 | 37937 ft | 464 kts | 320° |
| 2026-05-04 19:54 | -18.46040 | -72.14139 | 37943 ft | 465 kts | 321° |
| 2026-05-04 19:55 | -18.40859 | -72.18166 | 37944 ft | 465 kts | 321° |
| 2026-05-04 19:55 | -18.35636 | -72.22221 | 37944 ft | 465 kts | 321° |
| 2026-05-04 19:56 | -18.30423 | -72.26266 | 37950 ft | 465 kts | 321° |
| 2026-05-04 19:56 | -18.25213 | -72.30307 | 37944 ft | 465 kts | 321° |
| 2026-05-04 19:57 | -18.20030 | -72.34322 | 37940 ft | 465 kts | 321° |
| 2026-05-04 19:57 | -18.14812 | -72.38362 | 37943 ft | 466 kts | 321° |
| 2026-05-04 19:58 | -18.09583 | -72.42406 | 37949 ft | 466 kts | 321° |
| 2026-05-04 19:58 | -18.04347 | -72.46454 | 37937 ft | 466 kts | 321° |
| 2026-05-04 19:59 | -17.99121 | -72.50490 | 37946 ft | 466 kts | 321° |
| 2026-05-04 19:59 | -17.93927 | -72.54500 | 37950 ft | 467 kts | 321° |
| 2026-05-04 20:00 | -17.88681 | -72.58545 | 37947 ft | 467 kts | 321° |
| 2026-05-04 20:00 | -17.83431 | -72.62591 | 37945 ft | 468 kts | 321° |
| 2026-05-04 20:01 | -17.78186 | -72.66631 | 37948 ft | 467 kts | 321° |
| 2026-05-04 20:01 | -17.72933 | -72.70673 | 37951 ft | 468 kts | 321° |
| 2026-05-04 20:02 | -17.67683 | -72.74710 | 37950 ft | 468 kts | 321° |
| 2026-05-04 20:02 | -17.62463 | -72.78721 | 37948 ft | 468 kts | 321° |
| 2026-05-04 20:03 | -17.57203 | -72.82760 | 37947 ft | 469 kts | 321° |
| 2026-05-04 20:03 | -17.51937 | -72.86800 | 37956 ft | 469 kts | 321° |
| 2026-05-04 20:04 | -17.46672 | -72.90837 | 37948 ft | 469 kts | 321° |
| 2026-05-04 20:04 | -17.41393 | -72.94881 | 37951 ft | 471 kts | 321° |
| 2026-05-04 20:05 | -17.36095 | -72.98937 | 37957 ft | 471 kts | 321° |
| 2026-05-04 20:05 | -17.30829 | -73.02966 | 37964 ft | 471 kts | 321° |
| 2026-05-04 20:06 | -17.25539 | -73.07009 | 37960 ft | 471 kts | 321° |
| 2026-05-04 20:06 | -17.20239 | -73.11058 | 37958 ft | 471 kts | 321° |
| 2026-05-04 20:07 | -17.14946 | -73.15098 | 37957 ft | 471 kts | 321° |
| 2026-05-04 20:07 | -17.09650 | -73.19138 | 37961 ft | 471 kts | 321° |
| 2026-05-04 20:08 | -17.04356 | -73.23173 | 37957 ft | 470 kts | 321° |
| 2026-05-04 20:08 | -16.99093 | -73.27182 | 37955 ft | 470 kts | 321° |
| 2026-05-04 20:09 | -16.93801 | -73.31210 | 37952 ft | 470 kts | 321° |
| 2026-05-04 20:09 | -16.88504 | -73.35240 | 37949 ft | 471 kts | 321° |
| 2026-05-04 20:10 | -16.83188 | -73.39280 | 37954 ft | 472 kts | 322° |
| 2026-05-04 20:10 | -16.77852 | -73.43333 | 37954 ft | 473 kts | 322° |
| 2026-05-04 20:11 | -16.72553 | -73.47355 | 37959 ft | 474 kts | 322° |
| 2026-05-04 20:11 | -16.67216 | -73.51403 | 37957 ft | 473 kts | 322° |
| 2026-05-04 20:12 | -16.61886 | -73.55443 | 37956 ft | 474 kts | 322° |
| 2026-05-04 20:12 | -16.56551 | -73.59483 | 37959 ft | 474 kts | 322° |
| 2026-05-04 20:13 | -16.51215 | -73.63522 | 37956 ft | 473 kts | 322° |
| 2026-05-04 20:13 | -16.45915 | -73.67531 | 37958 ft | 473 kts | 322° |
| 2026-05-04 20:14 | -16.40589 | -73.71556 | 37959 ft | 472 kts | 322° |
| 2026-05-04 20:14 | -16.36131 | -73.74924 | 37958 ft | 472 kts | 322° |
| 2026-05-04 20:15 | -16.30849 | -73.78911 | 37963 ft | 472 kts | 322° |
| 2026-05-04 20:15 | -16.25525 | -73.82926 | 37967 ft | 473 kts | 322° |
| 2026-05-04 20:16 | -16.20196 | -73.86944 | 37963 ft | 474 kts | 322° |
| 2026-05-04 20:16 | -16.14859 | -73.90964 | 37968 ft | 474 kts | 322° |
| 2026-05-04 20:17 | -16.09517 | -73.94985 | 37962 ft | 473 kts | 322° |
| 2026-05-04 20:17 | -16.04201 | -73.98985 | 37962 ft | 471 kts | 322° |
| 2026-05-04 20:18 | -15.98873 | -74.02991 | 37968 ft | 473 kts | 322° |
| 2026-05-04 20:18 | -15.93523 | -74.07009 | 37968 ft | 474 kts | 322° |
| 2026-05-04 20:19 | -15.88207 | -74.11001 | 37979 ft | 474 kts | 322° |
| 2026-05-04 20:19 | -15.82840 | -74.15027 | 37980 ft | 474 kts | 323° |
| 2026-05-04 20:20 | -15.77487 | -74.19041 | 37984 ft | 475 kts | 323° |
| 2026-05-04 20:20 | -15.72128 | -74.23056 | 37980 ft | 474 kts | 323° |
| 2026-05-04 20:21 | -15.66770 | -74.27069 | 37987 ft | 475 kts | 323° |
| 2026-05-04 20:21 | -15.58754 | -74.33066 | 37983 ft | 475 kts | 323° |
| 2026-05-04 20:22 | -15.53387 | -74.37078 | 37980 ft | 475 kts | 323° |
| 2026-05-04 20:22 | -15.48018 | -74.41089 | 37983 ft | 476 kts | 323° |
| 2026-05-04 20:23 | -15.42642 | -74.45102 | 37986 ft | 475 kts | 323° |
| 2026-05-04 20:23 | -15.37278 | -74.49104 | 37980 ft | 475 kts | 323° |
| 2026-05-04 20:24 | -15.31910 | -74.53106 | 37981 ft | 475 kts | 323° |
| 2026-05-04 20:24 | -15.26547 | -74.57103 | 37974 ft | 475 kts | 323° |
| 2026-05-04 20:25 | -15.21185 | -74.61095 | 37977 ft | 474 kts | 323° |
| 2026-05-04 20:25 | -15.15814 | -74.65093 | 37978 ft | 476 kts | 323° |
| 2026-05-04 20:26 | -15.10483 | -74.69057 | 37978 ft | 475 kts | 323° |
| 2026-05-04 20:26 | -15.05094 | -74.73062 | 37977 ft | 475 kts | 323° |
| 2026-05-04 20:27 | -14.99715 | -74.77057 | 37975 ft | 476 kts | 323° |
| 2026-05-04 20:27 | -14.94346 | -74.81043 | 37975 ft | 475 kts | 323° |
| 2026-05-04 20:28 | -14.89000 | -74.85009 | 37967 ft | 475 kts | 323° |
| 2026-05-04 20:28 | -14.83619 | -74.88997 | 37965 ft | 475 kts | 323° |
| 2026-05-04 20:29 | -14.78246 | -74.92979 | 37965 ft | 475 kts | 323° |
| 2026-05-04 20:29 | -14.72867 | -74.96961 | 37959 ft | 475 kts | 323° |
| 2026-05-04 20:30 | -14.67497 | -75.00935 | 37957 ft | 475 kts | 323° |
| 2026-05-04 20:30 | -14.62119 | -75.04912 | 37959 ft | 475 kts | 323° |
| 2026-05-04 20:31 | -14.56750 | -75.08880 | 37959 ft | 474 kts | 324° |
| 2026-05-04 20:31 | -14.51409 | -75.12825 | 37957 ft | 475 kts | 324° |
| 2026-05-04 20:32 | -14.46021 | -75.16802 | 37961 ft | 475 kts | 324° |
| 2026-05-04 20:32 | -14.40642 | -75.20770 | 37963 ft | 475 kts | 324° |
| 2026-05-04 20:33 | -14.35292 | -75.24714 | 37964 ft | 474 kts | 324° |
| 2026-05-04 20:33 | -14.29916 | -75.28675 | 37966 ft | 474 kts | 324° |
| 2026-05-04 20:34 | -14.24530 | -75.32641 | 37971 ft | 474 kts | 324° |
| 2026-05-04 20:34 | -14.19157 | -75.36595 | 37973 ft | 474 kts | 324° |
| 2026-05-04 20:35 | -14.13814 | -75.40526 | 37981 ft | 475 kts | 324° |
| 2026-05-04 20:35 | -14.08441 | -75.44475 | 37986 ft | 474 kts | 324° |
| 2026-05-04 20:36 | -14.03070 | -75.48421 | 37987 ft | 474 kts | 324° |
| 2026-05-04 20:36 | -13.97696 | -75.52366 | 37983 ft | 474 kts | 324° |
| 2026-05-04 20:37 | -13.92320 | -75.56311 | 37987 ft | 474 kts | 324° |
| 2026-05-04 20:37 | -13.86944 | -75.60254 | 37986 ft | 474 kts | 324° |
| 2026-05-04 20:38 | -13.81603 | -75.64168 | 37987 ft | 474 kts | 324° |
| 2026-05-04 20:38 | -13.76228 | -75.68105 | 37989 ft | 474 kts | 324° |
| 2026-05-04 20:39 | -13.70855 | -75.72038 | 37985 ft | 474 kts | 324° |
| 2026-05-04 20:39 | -13.65482 | -75.75969 | 37980 ft | 474 kts | 324° |
| 2026-05-04 20:40 | -13.60147 | -75.79871 | 37981 ft | 473 kts | 324° |
| 2026-05-04 20:40 | -13.54774 | -75.83797 | 37982 ft | 474 kts | 324° |
| 2026-05-04 20:41 | -13.49387 | -75.87732 | 37985 ft | 475 kts | 324° |
| 2026-05-04 20:41 | -13.43992 | -75.91670 | 37986 ft | 475 kts | 324° |
| 2026-05-04 20:42 | -13.38602 | -75.95603 | 37995 ft | 475 kts | 324° |
| 2026-05-04 20:42 | -13.33241 | -75.99512 | 37993 ft | 475 kts | 324° |
| 2026-05-04 20:43 | -13.27861 | -76.03433 | 37991 ft | 474 kts | 324° |
| 2026-05-04 20:43 | -13.22469 | -76.07360 | 37988 ft | 474 kts | 324° |
| 2026-05-04 20:44 | -13.17081 | -76.11283 | 37983 ft | 474 kts | 324° |
| 2026-05-04 20:44 | -13.11733 | -76.15174 | 37984 ft | 474 kts | 324° |
| 2026-05-04 20:45 | -13.06340 | -76.19095 | 37982 ft | 474 kts | 324° |
| 2026-05-04 20:45 | -13.00953 | -76.23010 | 37978 ft | 474 kts | 324° |
| 2026-05-04 20:46 | -12.95604 | -76.26895 | 37983 ft | 475 kts | 325° |
| 2026-05-04 20:46 | -12.90207 | -76.30813 | 37982 ft | 475 kts | 325° |
| 2026-05-04 20:47 | -12.84811 | -76.34729 | 37984 ft | 475 kts | 325° |
| 2026-05-04 20:47 | -12.79411 | -76.38645 | 37980 ft | 475 kts | 325° |
| 2026-05-04 20:48 | -12.74014 | -76.42557 | 37988 ft | 475 kts | 325° |
| 2026-05-04 20:48 | -12.68605 | -76.46475 | 37985 ft | 476 kts | 325° |
| 2026-05-04 20:49 | -12.63199 | -76.50390 | 37984 ft | 476 kts | 325° |
| 2026-05-04 20:49 | -12.57828 | -76.54276 | 37982 ft | 475 kts | 325° |
| 2026-05-04 20:50 | -12.52415 | -76.58191 | 37985 ft | 476 kts | 325° |
| 2026-05-04 20:50 | -12.47009 | -76.62100 | 37986 ft | 476 kts | 325° |
| 2026-05-04 20:51 | -12.41605 | -76.66004 | 37981 ft | 475 kts | 325° |
| 2026-05-04 20:51 | -12.36204 | -76.69905 | 37979 ft | 475 kts | 325° |
| 2026-05-04 20:52 | -12.30791 | -76.73811 | 37979 ft | 476 kts | 325° |
| 2026-05-04 20:52 | -12.25407 | -76.77696 | 37978 ft | 477 kts | 325° |
| 2026-05-04 20:53 | -12.19982 | -76.81607 | 37973 ft | 477 kts | 325° |
| 2026-05-04 20:53 | -12.14553 | -76.85519 | 37965 ft | 477 kts | 325° |
| 2026-05-04 20:54 | -12.09128 | -76.89427 | 37958 ft | 477 kts | 326° |
| 2026-05-04 20:54 | -12.03731 | -76.93313 | 37952 ft | 477 kts | 326° |
| 2026-05-04 20:55 | -11.98301 | -76.97220 | 37945 ft | 478 kts | 326° |
| 2026-05-04 20:55 | -11.92873 | -77.01124 | 37942 ft | 477 kts | 326° |
| 2026-05-04 20:56 | -11.87447 | -77.05024 | 37948 ft | 477 kts | 326° |
| 2026-05-04 20:56 | -11.82059 | -77.08895 | 37951 ft | 477 kts | 326° |
| 2026-05-04 20:57 | -11.76621 | -77.12801 | 37961 ft | 479 kts | 326° |
| 2026-05-04 20:57 | -11.71171 | -77.16713 | 37969 ft | 479 kts | 326° |
| 2026-05-04 20:58 | -11.65710 | -77.20631 | 37977 ft | 480 kts | 326° |
| 2026-05-04 20:58 | -11.60287 | -77.24520 | 37976 ft | 480 kts | 326° |
| 2026-05-04 20:59 | -11.54829 | -77.28432 | 37969 ft | 480 kts | 326° |
| 2026-05-04 20:59 | -11.49367 | -77.32345 | 37972 ft | 480 kts | 326° |
| 2026-05-04 21:00 | -11.43895 | -77.36263 | 37966 ft | 481 kts | 326° |
| 2026-05-04 21:00 | -11.38454 | -77.40157 | 37964 ft | 481 kts | 326° |
| 2026-05-04 21:01 | -11.32980 | -77.44073 | 37970 ft | 481 kts | 326° |
| 2026-05-04 21:01 | -11.27494 | -77.47996 | 37974 ft | 482 kts | 326° |
| 2026-05-04 21:02 | -11.22004 | -77.51920 | 37972 ft | 482 kts | 326° |
| 2026-05-04 21:02 | -11.16519 | -77.55837 | 37969 ft | 482 kts | 326° |
| 2026-05-04 21:03 | -11.11068 | -77.59730 | 37966 ft | 482 kts | 326° |
| 2026-05-04 21:03 | -11.05579 | -77.63647 | 37970 ft | 482 kts | 326° |
| 2026-05-04 21:04 | -11.00091 | -77.67562 | 37967 ft | 482 kts | 326° |
| 2026-05-04 21:04 | -10.94602 | -77.71476 | 37968 ft | 482 kts | 326° |
| 2026-05-04 21:05 | -10.89143 | -77.75366 | 37967 ft | 482 kts | 326° |
| 2026-05-04 21:05 | -10.83657 | -77.79274 | 37971 ft | 482 kts | 326° |
| 2026-05-04 21:06 | -10.78162 | -77.83187 | 37979 ft | 482 kts | 326° |
| 2026-05-04 21:06 | -10.72661 | -77.87102 | 37983 ft | 483 kts | 326° |
| 2026-05-04 21:07 | -10.67159 | -77.91016 | 37990 ft | 483 kts | 326° |
| 2026-05-04 21:07 | -10.61694 | -77.94902 | 37993 ft | 483 kts | 326° |
| 2026-05-04 21:08 | -10.56190 | -77.98814 | 37997 ft | 483 kts | 326° |
| 2026-05-04 21:08 | -10.50698 | -78.02716 | 37992 ft | 480 kts | 326° |
| 2026-05-04 21:09 | -10.45222 | -78.06604 | 37992 ft | 480 kts | 326° |
| 2026-05-04 21:09 | -10.39774 | -78.10472 | 37994 ft | 482 kts | 326° |
| 2026-05-04 21:10 | -10.34279 | -78.14370 | 37998 ft | 482 kts | 326° |
| 2026-05-04 21:10 | -10.28791 | -78.18263 | 38001 ft | 481 kts | 326° |
| 2026-05-04 21:11 | -10.23308 | -78.22149 | 37997 ft | 480 kts | 326° |
| 2026-05-04 21:11 | -10.17834 | -78.26028 | 37998 ft | 480 kts | 326° |
| 2026-05-04 21:12 | -10.13285 | -78.29250 | 37999 ft | 480 kts | 326° |
| 2026-05-04 21:12 | -10.06925 | -78.33752 | 37997 ft | 479 kts | 326° |
| 2026-05-04 21:13 | -10.01458 | -78.37622 | 37997 ft | 479 kts | 326° |
| 2026-05-04 21:13 | -9.95994 | -78.41487 | 37998 ft | 478 kts | 326° |
| 2026-05-04 21:14 | -9.91459 | -78.44694 | 37994 ft | 478 kts | 326° |
| 2026-05-04 21:14 | -9.86000 | -78.48552 | 37995 ft | 478 kts | 326° |
| 2026-05-04 21:15 | -9.79652 | -78.53037 | 37989 ft | 479 kts | 326° |
| 2026-05-04 21:15 | -9.75100 | -78.56251 | 37984 ft | 480 kts | 326° |
| 2026-05-04 21:16 | -9.69613 | -78.60126 | 37975 ft | 480 kts | 326° |
| 2026-05-04 21:16 | -9.64129 | -78.63996 | 37961 ft | 480 kts | 326° |
| 2026-05-04 21:17 | -9.58644 | -78.67865 | 37943 ft | 480 kts | 326° |
| 2026-05-04 21:17 | -9.53165 | -78.71729 | 37936 ft | 480 kts | 326° |
| 2026-05-04 21:18 | -9.47723 | -78.75564 | 37932 ft | 480 kts | 326° |
| 2026-05-04 21:18 | -9.42239 | -78.79428 | 37929 ft | 481 kts | 326° |
| 2026-05-04 21:19 | -9.36743 | -78.83299 | 37931 ft | 481 kts | 326° |
| 2026-05-04 21:19 | -9.31246 | -78.87169 | 37932 ft | 481 kts | 326° |
| 2026-05-04 21:20 | -9.25788 | -78.91010 | 37933 ft | 481 kts | 326° |
| 2026-05-04 21:20 | -9.20292 | -78.94876 | 37934 ft | 481 kts | 326° |
| 2026-05-04 21:21 | -9.14793 | -78.98743 | 37933 ft | 482 kts | 326° |
| 2026-05-04 21:21 | -9.09289 | -79.02612 | 37936 ft | 482 kts | 326° |
| 2026-05-04 21:22 | -9.03829 | -79.06449 | 37933 ft | 481 kts | 326° |
| 2026-05-04 21:22 | -8.98321 | -79.10318 | 37932 ft | 482 kts | 326° |
| 2026-05-04 21:23 | -8.92817 | -79.14182 | 37935 ft | 481 kts | 326° |
| 2026-05-04 21:23 | -8.87308 | -79.18048 | 37934 ft | 482 kts | 326° |
| 2026-05-04 21:24 | -8.81836 | -79.21888 | 37935 ft | 482 kts | 326° |
| 2026-05-04 21:24 | -8.76319 | -79.25756 | 37936 ft | 483 kts | 327° |
| 2026-05-04 21:25 | -8.70798 | -79.29628 | 37933 ft | 483 kts | 327° |
| 2026-05-04 21:25 | -8.65272 | -79.33501 | 37938 ft | 483 kts | 327° |
| 2026-05-04 21:26 | -8.59751 | -79.37368 | 37931 ft | 482 kts | 327° |
| 2026-05-04 21:26 | -8.54280 | -79.41200 | 37934 ft | 482 kts | 327° |
| 2026-05-04 21:27 | -8.48764 | -79.45061 | 37936 ft | 482 kts | 327° |
| 2026-05-04 21:27 | -8.43255 | -79.48917 | 37935 ft | 482 kts | 327° |
| 2026-05-04 21:28 | -8.37741 | -79.52774 | 37934 ft | 482 kts | 327° |
| 2026-05-04 21:28 | -8.32220 | -79.56636 | 37933 ft | 483 kts | 327° |
| 2026-05-04 21:29 | -8.26728 | -79.60475 | 37928 ft | 483 kts | 327° |
| 2026-05-04 21:29 | -8.21201 | -79.64337 | 37928 ft | 483 kts | 327° |
| 2026-05-04 21:30 | -8.15672 | -79.68200 | 37927 ft | 483 kts | 327° |
| 2026-05-04 21:30 | -8.10149 | -79.72057 | 37924 ft | 482 kts | 327° |
| 2026-05-04 21:31 | -8.01902 | -79.77813 | 37921 ft | 484 kts | 327° |
| 2026-05-04 21:32 | -7.96353 | -79.81686 | 37921 ft | 485 kts | 327° |
| 2026-05-04 21:32 | -7.90795 | -79.85563 | 37920 ft | 486 kts | 326° |
| 2026-05-04 21:33 | -7.85266 | -79.89419 | 37922 ft | 486 kts | 326° |
| 2026-05-04 21:33 | -7.79707 | -79.93293 | 37917 ft | 486 kts | 326° |
| 2026-05-04 21:34 | -7.74139 | -79.97174 | 37917 ft | 487 kts | 326° |
| 2026-05-04 21:34 | -7.68567 | -80.01055 | 37913 ft | 487 kts | 326° |
| 2026-05-04 21:35 | -7.62987 | -80.04941 | 37914 ft | 487 kts | 326° |
| 2026-05-04 21:35 | -7.57453 | -80.08794 | 37911 ft | 486 kts | 326° |
| 2026-05-04 21:36 | -7.51892 | -80.12664 | 37911 ft | 486 kts | 326° |
| 2026-05-04 21:36 | -7.46312 | -80.16546 | 37906 ft | 486 kts | 326° |
| 2026-05-04 21:37 | -7.40735 | -80.20425 | 37909 ft | 486 kts | 326° |
| 2026-05-04 21:37 | -7.35206 | -80.24269 | 37911 ft | 485 kts | 326° |
| 2026-05-04 21:38 | -7.29637 | -80.28140 | 37911 ft | 486 kts | 326° |
| 2026-05-04 21:38 | -7.24061 | -80.32014 | 37913 ft | 486 kts | 326° |
| 2026-05-04 21:39 | -7.18497 | -80.35880 | 37914 ft | 486 kts | 326° |
| 2026-05-04 21:39 | -7.12921 | -80.39752 | 37912 ft | 487 kts | 326° |
| 2026-05-04 21:40 | -7.07337 | -80.43629 | 37916 ft | 488 kts | 326° |
| 2026-05-04 21:40 | -7.01779 | -80.47486 | 37913 ft | 488 kts | 326° |
| 2026-05-04 21:41 | -6.96192 | -80.51362 | 37915 ft | 488 kts | 326° |
| 2026-05-04 21:41 | -6.90595 | -80.55244 | 37908 ft | 488 kts | 326° |
| 2026-05-04 21:42 | -6.85015 | -80.59114 | 37907 ft | 487 kts | 326° |
| 2026-05-04 21:42 | -6.79428 | -80.62987 | 37907 ft | 488 kts | 326° |
| 2026-05-04 21:43 | -6.73833 | -80.66864 | 37906 ft | 488 kts | 326° |
| 2026-05-04 21:43 | -6.68227 | -80.70748 | 37904 ft | 489 kts | 326° |
| 2026-05-04 21:44 | -6.62618 | -80.74633 | 37908 ft | 490 kts | 326° |
| 2026-05-04 21:44 | -6.57003 | -80.78521 | 37910 ft | 489 kts | 326° |
| 2026-05-04 21:45 | -6.51429 | -80.82379 | 37909 ft | 489 kts | 326° |
| 2026-05-04 21:45 | -6.45825 | -80.86258 | 37908 ft | 489 kts | 326° |
| 2026-05-04 21:46 | -6.40216 | -80.90138 | 37909 ft | 488 kts | 327° |
| 2026-05-04 21:46 | -6.34615 | -80.94012 | 37902 ft | 488 kts | 327° |
| 2026-05-04 21:47 | -6.29016 | -80.97883 | 37905 ft | 489 kts | 327° |
| 2026-05-04 21:47 | -6.23412 | -81.01757 | 37906 ft | 490 kts | 327° |
| 2026-05-04 21:48 | -6.17825 | -81.05619 | 37903 ft | 491 kts | 327° |
| 2026-05-04 21:48 | -6.12194 | -81.09510 | 37904 ft | 491 kts | 327° |
| 2026-05-04 21:49 | -6.06534 | -81.13419 | 37902 ft | 491 kts | 327° |
| 2026-05-04 21:49 | -6.00907 | -81.17305 | 37900 ft | 491 kts | 327° |
| 2026-05-04 21:50 | -5.95284 | -81.21187 | 37897 ft | 491 kts | 327° |
| 2026-05-04 21:50 | -5.89682 | -81.25054 | 37899 ft | 491 kts | 327° |
| 2026-05-04 21:51 | -5.84051 | -81.28939 | 37896 ft | 490 kts | 327° |
| 2026-05-04 21:51 | -5.78438 | -81.32812 | 37895 ft | 489 kts | 327° |
| 2026-05-04 21:52 | -5.72836 | -81.36675 | 37893 ft | 488 kts | 327° |
| 2026-05-04 21:52 | -5.67233 | -81.40539 | 37893 ft | 489 kts | 327° |
| 2026-05-04 21:53 | -5.61621 | -81.44408 | 37893 ft | 490 kts | 327° |
| 2026-05-04 21:53 | -5.55993 | -81.48287 | 37890 ft | 490 kts | 327° |
| 2026-05-04 21:54 | -5.50365 | -81.52164 | 37896 ft | 491 kts | 327° |
| 2026-05-04 21:54 | -5.44723 | -81.56051 | 37894 ft | 491 kts | 327° |
| 2026-05-04 21:55 | -5.39123 | -81.59908 | 37891 ft | 491 kts | 327° |
| 2026-05-04 21:55 | -5.33487 | -81.63789 | 37892 ft | 491 kts | 327° |
| 2026-05-04 21:56 | -5.27841 | -81.67675 | 37893 ft | 492 kts | 327° |
| 2026-05-04 21:56 | -5.22196 | -81.71561 | 37893 ft | 492 kts | 327° |
| 2026-05-04 21:57 | -5.16541 | -81.75453 | 37894 ft | 493 kts | 326° |
| 2026-05-04 21:57 | -5.10889 | -81.79340 | 37891 ft | 493 kts | 326° |
| 2026-05-04 21:58 | -5.05236 | -81.83228 | 37889 ft | 493 kts | 326° |
| 2026-05-04 21:58 | -4.99579 | -81.87118 | 37886 ft | 493 kts | 326° |
| 2026-05-04 21:59 | -4.93958 | -81.90983 | 37890 ft | 493 kts | 326° |
| 2026-05-04 21:59 | -4.88299 | -81.94872 | 37890 ft | 493 kts | 326° |
| 2026-05-04 22:00 | -4.82631 | -81.98768 | 37889 ft | 494 kts | 326° |
| 2026-05-04 22:00 | -4.76960 | -82.02665 | 37889 ft | 494 kts | 326° |
| 2026-05-04 22:01 | -4.71299 | -82.06553 | 37886 ft | 493 kts | 326° |
| 2026-05-04 22:01 | -4.65632 | -82.10445 | 37892 ft | 493 kts | 326° |
| 2026-05-04 22:02 | -4.59972 | -82.14333 | 37893 ft | 493 kts | 326° |
| 2026-05-04 22:02 | -4.54316 | -82.18215 | 37892 ft | 493 kts | 326° |
| 2026-05-04 22:03 | -4.48643 | -82.22109 | 37892 ft | 493 kts | 326° |
| 2026-05-04 22:03 | -4.43020 | -82.25968 | 37890 ft | 493 kts | 326° |
| 2026-05-04 22:04 | -4.37367 | -82.29847 | 37891 ft | 492 kts | 326° |
| 2026-05-04 22:04 | -4.31716 | -82.33722 | 37892 ft | 492 kts | 327° |
| 2026-05-04 22:05 | -4.26057 | -82.37605 | 37890 ft | 492 kts | 326° |
| 2026-05-04 22:05 | -4.20410 | -82.41477 | 37891 ft | 492 kts | 327° |
| 2026-05-04 22:06 | -4.14757 | -82.45353 | 37892 ft | 492 kts | 327° |
| 2026-05-04 22:06 | -4.09103 | -82.49229 | 37890 ft | 492 kts | 327° |
| 2026-05-04 22:07 | -4.03446 | -82.53106 | 37889 ft | 492 kts | 327° |
| 2026-05-04 22:07 | -3.97791 | -82.56981 | 37890 ft | 493 kts | 327° |
| 2026-05-04 22:08 | -3.92128 | -82.60862 | 37891 ft | 493 kts | 327° |
| 2026-05-04 22:08 | -3.86461 | -82.64744 | 37888 ft | 494 kts | 327° |
| 2026-05-04 22:09 | -3.80824 | -82.68604 | 37889 ft | 494 kts | 327° |
| 2026-05-04 22:09 | -3.75141 | -82.72496 | 37890 ft | 495 kts | 327° |
| 2026-05-04 22:10 | -3.69455 | -82.76390 | 37891 ft | 495 kts | 327° |
| 2026-05-04 22:10 | -3.63771 | -82.80280 | 37892 ft | 495 kts | 327° |
| 2026-05-04 22:11 | -3.58081 | -82.84176 | 37889 ft | 495 kts | 327° |
| 2026-05-04 22:11 | -3.52399 | -82.88064 | 37884 ft | 494 kts | 327° |
| 2026-05-04 22:12 | -3.46718 | -82.91952 | 37886 ft | 495 kts | 327° |
| 2026-05-04 22:12 | -3.41027 | -82.95846 | 37884 ft | 496 kts | 327° |
| 2026-05-04 22:13 | -3.36293 | -82.99084 | 37884 ft | 496 kts | 327° |
| 2026-05-04 22:13 | -3.30592 | -83.02984 | 37884 ft | 496 kts | 327° |
| 2026-05-04 22:14 | -3.23963 | -83.07518 | 37885 ft | 497 kts | 327° |
| 2026-05-04 22:14 | -3.19205 | -83.10771 | 37882 ft | 498 kts | 327° |
| 2026-05-04 22:15 | -3.13481 | -83.14685 | 37883 ft | 498 kts | 327° |
| 2026-05-04 22:15 | -3.07757 | -83.18598 | 37886 ft | 498 kts | 327° |
| 2026-05-04 22:16 | -3.02033 | -83.22511 | 37879 ft | 498 kts | 327° |
| 2026-05-04 22:16 | -2.96304 | -83.26426 | 37881 ft | 498 kts | 327° |
| 2026-05-04 22:17 | -2.90572 | -83.30343 | 37878 ft | 498 kts | 327° |
| 2026-05-04 22:17 | -2.84844 | -83.34256 | 37881 ft | 499 kts | 327° |
| 2026-05-04 22:18 | -2.79141 | -83.38153 | 37880 ft | 499 kts | 327° |
| 2026-05-04 22:18 | -2.73401 | -83.42074 | 37882 ft | 500 kts | 327° |
| 2026-05-04 22:19 | -2.67651 | -83.46001 | 37881 ft | 500 kts | 327° |
| 2026-05-04 22:19 | -2.61895 | -83.49933 | 37880 ft | 501 kts | 327° |
| 2026-05-04 22:20 | -2.56122 | -83.53874 | 37878 ft | 502 kts | 327° |
| 2026-05-04 22:20 | -2.50355 | -83.57812 | 37884 ft | 502 kts | 326° |
| 2026-05-04 22:21 | -2.44598 | -83.61743 | 37882 ft | 503 kts | 326° |
| 2026-05-04 22:21 | -2.38816 | -83.65690 | 37882 ft | 503 kts | 326° |
| 2026-05-04 22:22 | -2.33029 | -83.69640 | 37879 ft | 503 kts | 326° |
| 2026-05-04 22:22 | -2.27237 | -83.73593 | 37880 ft | 504 kts | 326° |
| 2026-05-04 22:23 | -2.21444 | -83.77546 | 37881 ft | 504 kts | 326° |
| 2026-05-04 22:23 | -2.15676 | -83.81482 | 37877 ft | 504 kts | 326° |
| 2026-05-04 22:24 | -2.09881 | -83.85436 | 37876 ft | 504 kts | 326° |
| 2026-05-04 22:24 | -2.04084 | -83.89391 | 37878 ft | 504 kts | 326° |
| 2026-05-04 22:25 | -1.98296 | -83.93340 | 37877 ft | 503 kts | 326° |
| 2026-05-04 22:25 | -1.92551 | -83.97259 | 37879 ft | 503 kts | 326° |
| 2026-05-04 22:26 | -1.86762 | -84.01207 | 37877 ft | 504 kts | 326° |
| 2026-05-04 22:26 | -1.80971 | -84.05157 | 37877 ft | 504 kts | 326° |
| 2026-05-04 22:27 | -1.75169 | -84.09114 | 37875 ft | 504 kts | 326° |
| 2026-05-04 22:27 | -1.69374 | -84.13065 | 37876 ft | 504 kts | 326° |
| 2026-05-04 22:28 | -1.63573 | -84.17021 | 37879 ft | 504 kts | 326° |
| 2026-05-04 22:28 | -1.57774 | -84.20975 | 37879 ft | 504 kts | 326° |
| 2026-05-04 22:29 | -1.52008 | -84.24906 | 37885 ft | 505 kts | 326° |
| 2026-05-04 22:29 | -1.46157 | -84.28895 | 37881 ft | 505 kts | 326° |
| 2026-05-04 22:30 | -1.40382 | -84.32832 | 37881 ft | 506 kts | 327° |
| 2026-05-04 22:30 | -1.34568 | -84.36794 | 37883 ft | 506 kts | 326° |
| 2026-05-04 22:31 | -1.28752 | -84.40759 | 37885 ft | 506 kts | 327° |
| 2026-05-04 22:31 | -1.22934 | -84.44724 | 37879 ft | 506 kts | 327° |
| 2026-05-04 22:32 | -1.17110 | -84.48693 | 37878 ft | 506 kts | 327° |
| 2026-05-04 22:32 | -1.11293 | -84.52657 | 37879 ft | 506 kts | 327° |
| 2026-05-04 22:33 | -1.05471 | -84.56625 | 37879 ft | 507 kts | 327° |
| 2026-05-04 22:33 | -0.99643 | -84.60596 | 37878 ft | 507 kts | 327° |
| 2026-05-04 22:34 | -0.93811 | -84.64571 | 37877 ft | 506 kts | 327° |
| 2026-05-04 22:34 | -0.87994 | -84.68534 | 37872 ft | 507 kts | 327° |
| 2026-05-04 22:35 | -0.82208 | -84.72476 | 37875 ft | 506 kts | 327° |
| 2026-05-04 22:35 | -0.76388 | -84.76442 | 37874 ft | 505 kts | 327° |
| 2026-05-04 22:36 | -0.70571 | -84.80404 | 37873 ft | 506 kts | 327° |
| 2026-05-04 22:36 | -0.64752 | -84.84368 | 37875 ft | 507 kts | 327° |
| 2026-05-04 22:37 | -0.58925 | -84.88338 | 37876 ft | 507 kts | 327° |
| 2026-05-04 22:37 | -0.53100 | -84.92306 | 37872 ft | 506 kts | 327° |
| 2026-05-04 22:38 | -0.47288 | -84.96266 | 37873 ft | 504 kts | 327° |
| 2026-05-04 22:38 | -0.41532 | -85.00187 | 37873 ft | 504 kts | 327° |
| 2026-05-04 22:39 | -0.35736 | -85.04135 | 37867 ft | 503 kts | 327° |
| 2026-05-04 22:39 | -0.29945 | -85.08080 | 37867 ft | 504 kts | 327° |
| 2026-05-04 22:40 | -0.24148 | -85.12028 | 37865 ft | 504 kts | 327° |
| 2026-05-04 22:40 | -0.18353 | -85.15976 | 37872 ft | 504 kts | 327° |
| 2026-05-04 22:41 | -0.12553 | -85.19927 | 37868 ft | 505 kts | 327° |
| 2026-05-04 22:41 | -0.06784 | -85.23857 | 37870 ft | 505 kts | 327° |
| 2026-05-04 22:42 | -0.00967 | -85.27819 | 37871 ft | 506 kts | 327° |
| 2026-05-04 22:42 | 0.04805 | -85.31750 | 37886 ft | 497 kts | 326° |
| 2026-05-04 22:43 | 0.10512 | -85.35638 | 37878 ft | 497 kts | 326° |
| 2026-05-04 22:43 | 0.16236 | -85.39536 | 37880 ft | 498 kts | 326° |
| 2026-05-04 22:44 | 0.21964 | -85.43439 | 37876 ft | 498 kts | 326° |
| 2026-05-04 22:44 | 0.27656 | -85.47315 | 37878 ft | 499 kts | 326° |
| 2026-05-04 22:45 | 0.33398 | -85.51227 | 37880 ft | 499 kts | 326° |
| 2026-05-04 22:45 | 0.42007 | -85.57091 | 37883 ft | 499 kts | 326° |
| 2026-05-04 22:46 | 0.47722 | -85.60985 | 37885 ft | 499 kts | 326° |
| 2026-05-04 22:46 | 0.53463 | -85.64895 | 37885 ft | 499 kts | 326° |
| 2026-05-04 22:47 | 0.59204 | -85.68806 | 37879 ft | 499 kts | 326° |
| 2026-05-04 22:47 | 0.64959 | -85.72727 | 37882 ft | 500 kts | 326° |
| 2026-05-04 22:48 | 0.70703 | -85.76641 | 37879 ft | 500 kts | 326° |
| 2026-05-04 22:48 | 0.76449 | -85.80555 | 37877 ft | 500 kts | 326° |
| 2026-05-04 22:49 | 0.82194 | -85.84469 | 37876 ft | 500 kts | 326° |
| 2026-05-04 22:49 | 0.87942 | -85.88385 | 37880 ft | 501 kts | 326° |
| 2026-05-04 22:50 | 0.93673 | -85.92290 | 37875 ft | 500 kts | 326° |
| 2026-05-04 22:50 | 0.99425 | -85.96210 | 37881 ft | 500 kts | 326° |
| 2026-05-04 22:51 | 1.05184 | -86.00134 | 37881 ft | 501 kts | 326° |
| 2026-05-04 22:51 | 1.10958 | -86.04068 | 37881 ft | 502 kts | 326° |
| 2026-05-04 22:52 | 1.16729 | -86.08002 | 37878 ft | 502 kts | 326° |
| 2026-05-04 22:52 | 1.22497 | -86.11933 | 37878 ft | 502 kts | 326° |
| 2026-05-04 22:53 | 1.28269 | -86.15867 | 37877 ft | 502 kts | 326° |
| 2026-05-04 22:53 | 1.33999 | -86.19772 | 37877 ft | 502 kts | 326° |
| 2026-05-04 22:54 | 1.39772 | -86.23707 | 37878 ft | 502 kts | 326° |
| 2026-05-04 22:54 | 1.45545 | -86.27623 | 37875 ft | 501 kts | 326° |
| 2026-05-04 22:55 | 1.51336 | -86.31507 | 37877 ft | 502 kts | 326° |
| 2026-05-04 22:55 | 1.57123 | -86.35417 | 37880 ft | 502 kts | 326° |
| 2026-05-04 22:56 | 1.62919 | -86.39316 | 37877 ft | 502 kts | 326° |
| 2026-05-04 22:56 | 1.68701 | -86.43216 | 37872 ft | 501 kts | 326° |
| 2026-05-04 22:57 | 1.74454 | -86.47092 | 37874 ft | 502 kts | 326° |
| 2026-05-04 22:57 | 1.80246 | -86.50996 | 37873 ft | 502 kts | 326° |
| 2026-05-04 22:58 | 1.86035 | -86.54898 | 37875 ft | 502 kts | 326° |
| 2026-05-04 22:58 | 1.91830 | -86.58805 | 37872 ft | 502 kts | 326° |
| 2026-05-04 22:59 | 1.97628 | -86.62714 | 37872 ft | 503 kts | 326° |
| 2026-05-04 22:59 | 2.03434 | -86.66628 | 37876 ft | 503 kts | 326° |
| 2026-05-04 23:00 | 2.08261 | -86.69883 | 37868 ft | 503 kts | 326° |
| 2026-05-04 23:00 | 2.14073 | -86.73802 | 37870 ft | 504 kts | 326° |
| 2026-05-04 23:01 | 2.19893 | -86.77728 | 37879 ft | 505 kts | 326° |
| 2026-05-04 23:01 | 2.25710 | -86.81651 | 37875 ft | 504 kts | 326° |
| 2026-05-04 23:02 | 2.31504 | -86.85559 | 37877 ft | 504 kts | 326° |
| 2026-05-04 23:02 | 2.37321 | -86.89483 | 37878 ft | 504 kts | 326° |
| 2026-05-04 23:03 | 2.43144 | -86.93412 | 37876 ft | 503 kts | 326° |
| 2026-05-04 23:03 | 2.48914 | -86.97305 | 37870 ft | 503 kts | 326° |
| 2026-05-04 23:04 | 2.54714 | -87.01219 | 37869 ft | 503 kts | 326° |
| 2026-05-04 23:04 | 2.60517 | -87.05135 | 37870 ft | 503 kts | 326° |
| 2026-05-04 23:05 | 2.66325 | -87.09056 | 37870 ft | 504 kts | 326° |
| 2026-05-04 23:05 | 2.72145 | -87.12984 | 37870 ft | 504 kts | 326° |
| 2026-05-04 23:06 | 2.77928 | -87.16889 | 37875 ft | 504 kts | 326° |
| 2026-05-04 23:06 | 2.83739 | -87.20812 | 37874 ft | 504 kts | 326° |
| 2026-05-04 23:07 | 2.89565 | -87.24746 | 37877 ft | 505 kts | 326° |
| 2026-05-04 23:07 | 2.95388 | -87.28679 | 37877 ft | 505 kts | 326° |
| 2026-05-04 23:08 | 3.01215 | -87.32615 | 37876 ft | 505 kts | 326° |
| 2026-05-04 23:08 | 3.07034 | -87.36546 | 37867 ft | 504 kts | 326° |
| 2026-05-04 23:09 | 3.12851 | -87.40476 | 37874 ft | 505 kts | 326° |
| 2026-05-04 23:09 | 3.18671 | -87.44409 | 37873 ft | 505 kts | 326° |
| 2026-05-04 23:10 | 3.24493 | -87.48343 | 37872 ft | 505 kts | 326° |
| 2026-05-04 23:10 | 3.30285 | -87.52259 | 37875 ft | 505 kts | 326° |
| 2026-05-04 23:11 | 3.36100 | -87.56189 | 37872 ft | 504 kts | 326° |
| 2026-05-04 23:11 | 3.41917 | -87.60123 | 37877 ft | 505 kts | 326° |
| 2026-05-04 23:12 | 3.47743 | -87.64062 | 37874 ft | 506 kts | 326° |
| 2026-05-04 23:12 | 3.53578 | -87.68008 | 37877 ft | 506 kts | 326° |
| 2026-05-04 23:13 | 3.59413 | -87.71956 | 37871 ft | 505 kts | 326° |
| 2026-05-04 23:13 | 3.65205 | -87.75874 | 37879 ft | 505 kts | 326° |
| 2026-05-04 23:14 | 3.71037 | -87.79820 | 37875 ft | 504 kts | 326° |
| 2026-05-04 23:14 | 3.76852 | -87.83755 | 37869 ft | 504 kts | 326° |
| 2026-05-04 23:15 | 3.82670 | -87.87693 | 37870 ft | 505 kts | 326° |
| 2026-05-04 23:15 | 3.88493 | -87.91635 | 37874 ft | 505 kts | 326° |
| 2026-05-04 23:16 | 3.94273 | -87.95549 | 37872 ft | 505 kts | 326° |
| 2026-05-04 23:16 | 4.00095 | -87.99492 | 37872 ft | 505 kts | 326° |
| 2026-05-04 23:17 | 4.05922 | -88.03438 | 37871 ft | 505 kts | 326° |
| 2026-05-04 23:17 | 4.11743 | -88.07381 | 37876 ft | 505 kts | 326° |
| 2026-05-04 23:18 | 4.17564 | -88.11326 | 37876 ft | 505 kts | 326° |
| 2026-05-04 23:18 | 4.23389 | -88.15273 | 37873 ft | 505 kts | 326° |
| 2026-05-04 23:19 | 4.29204 | -88.19215 | 37872 ft | 505 kts | 326° |
| 2026-05-04 23:19 | 4.34991 | -88.23138 | 37874 ft | 505 kts | 326° |
| 2026-05-04 23:20 | 4.40816 | -88.27088 | 37870 ft | 505 kts | 326° |
| 2026-05-04 23:20 | 4.46638 | -88.31036 | 37872 ft | 505 kts | 326° |
| 2026-05-04 23:21 | 4.52464 | -88.34988 | 37872 ft | 506 kts | 326° |
| 2026-05-04 23:21 | 4.58292 | -88.38942 | 37875 ft | 506 kts | 326° |
| 2026-05-04 23:22 | 4.64128 | -88.42902 | 37878 ft | 506 kts | 326° |
| 2026-05-04 23:22 | 4.69956 | -88.46858 | 37879 ft | 505 kts | 326° |
| 2026-05-04 23:23 | 4.75777 | -88.50810 | 37875 ft | 505 kts | 326° |
| 2026-05-04 23:23 | 4.81600 | -88.54764 | 37878 ft | 506 kts | 326° |
| 2026-05-04 23:24 | 4.87394 | -88.58699 | 37878 ft | 506 kts | 326° |
| 2026-05-04 23:24 | 4.93221 | -88.62657 | 37874 ft | 506 kts | 326° |
| 2026-05-04 23:25 | 4.99054 | -88.66621 | 37875 ft | 506 kts | 326° |
| 2026-05-04 23:25 | 5.04891 | -88.70588 | 37878 ft | 506 kts | 326° |
| 2026-05-04 23:26 | 5.10724 | -88.74553 | 37879 ft | 506 kts | 326° |
| 2026-05-04 23:26 | 5.16563 | -88.78522 | 37877 ft | 506 kts | 326° |
| 2026-05-04 23:27 | 5.22349 | -88.82457 | 37867 ft | 506 kts | 326° |
| 2026-05-04 23:27 | 5.28172 | -88.86418 | 37875 ft | 505 kts | 326° |
| 2026-05-04 23:28 | 5.34003 | -88.90385 | 37877 ft | 506 kts | 326° |
| 2026-05-04 23:28 | 5.39825 | -88.94347 | 37878 ft | 506 kts | 326° |
| 2026-05-04 23:29 | 5.45647 | -88.98310 | 37875 ft | 505 kts | 326° |
| 2026-05-04 23:29 | 5.51426 | -89.02245 | 37877 ft | 505 kts | 326° |
| 2026-05-04 23:30 | 5.57252 | -89.06212 | 37878 ft | 504 kts | 326° |
| 2026-05-04 23:30 | 5.63053 | -89.10164 | 37875 ft | 503 kts | 326° |
| 2026-05-04 23:31 | 5.68852 | -89.14115 | 37874 ft | 503 kts | 326° |
| 2026-05-04 23:31 | 5.74660 | -89.18073 | 37871 ft | 504 kts | 326° |
| 2026-05-04 23:32 | 5.80425 | -89.22003 | 37874 ft | 504 kts | 326° |
| 2026-05-04 23:32 | 5.86223 | -89.25957 | 37872 ft | 503 kts | 326° |
| 2026-05-04 23:33 | 5.92018 | -89.29909 | 37878 ft | 504 kts | 326° |
| 2026-05-04 23:33 | 5.97829 | -89.33873 | 37878 ft | 504 kts | 326° |
| 2026-05-04 23:34 | 6.03598 | -89.37810 | 37875 ft | 504 kts | 326° |
| 2026-05-04 23:34 | 6.09411 | -89.41778 | 37873 ft | 504 kts | 326° |
| 2026-05-04 23:35 | 6.15219 | -89.45743 | 37876 ft | 503 kts | 326° |
| 2026-05-04 23:35 | 6.20977 | -89.49676 | 37874 ft | 503 kts | 325° |
| 2026-05-04 23:36 | 6.26770 | -89.53633 | 37872 ft | 504 kts | 325° |
| 2026-05-04 23:36 | 6.32622 | -89.57512 | 37872 ft | 504 kts | 328° |
| 2026-05-04 23:37 | 6.38553 | -89.61276 | 37873 ft | 503 kts | 327° |
| 2026-05-04 23:37 | 6.44426 | -89.65115 | 37874 ft | 504 kts | 327° |
| 2026-05-04 23:38 | 6.50334 | -89.68908 | 37877 ft | 504 kts | 327° |
| 2026-05-04 23:38 | 6.56225 | -89.72733 | 37872 ft | 505 kts | 327° |
| 2026-05-04 23:39 | 6.62103 | -89.76527 | 37882 ft | 505 kts | 327° |
| 2026-05-04 23:39 | 6.68004 | -89.80350 | 37879 ft | 504 kts | 327° |
| 2026-05-04 23:40 | 6.73909 | -89.84170 | 37875 ft | 504 kts | 327° |
| 2026-05-04 23:40 | 6.79820 | -89.87998 | 37876 ft | 504 kts | 327° |
| 2026-05-04 23:41 | 6.85730 | -89.91825 | 37876 ft | 504 kts | 327° |
| 2026-05-04 23:41 | 6.91615 | -89.95638 | 37874 ft | 503 kts | 327° |
| 2026-05-04 23:42 | 6.97465 | -89.99429 | 37876 ft | 503 kts | 327° |
| 2026-05-04 23:42 | 7.03363 | -90.03252 | 37877 ft | 504 kts | 327° |
| 2026-05-04 23:43 | 7.09260 | -90.07075 | 37879 ft | 505 kts | 327° |
| 2026-05-04 23:43 | 7.15169 | -90.10908 | 37882 ft | 505 kts | 327° |
| 2026-05-04 23:44 | 7.21072 | -90.14738 | 37880 ft | 505 kts | 327° |
| 2026-05-04 23:44 | 7.26972 | -90.18568 | 37883 ft | 504 kts | 327° |
| 2026-05-04 23:45 | 7.32871 | -90.22398 | 37885 ft | 505 kts | 327° |
| 2026-05-04 23:45 | 7.38783 | -90.26237 | 37884 ft | 505 kts | 327° |
| 2026-05-04 23:46 | 7.44650 | -90.30049 | 37884 ft | 505 kts | 327° |
| 2026-05-04 23:46 | 7.50545 | -90.33880 | 37882 ft | 504 kts | 327° |
| 2026-05-04 23:47 | 7.56445 | -90.37715 | 37882 ft | 505 kts | 327° |
| 2026-05-04 23:47 | 7.62342 | -90.41550 | 37886 ft | 505 kts | 327° |
| 2026-05-04 23:48 | 7.68252 | -90.45395 | 37887 ft | 505 kts | 327° |
| 2026-05-04 23:48 | 7.73152 | -90.48583 | 37890 ft | 505 kts | 327° |
| 2026-05-04 23:49 | 7.79060 | -90.52428 | 37889 ft | 505 kts | 327° |
| 2026-05-04 23:49 | 7.84968 | -90.56276 | 37889 ft | 505 kts | 327° |
| 2026-05-04 23:50 | 7.90869 | -90.60119 | 37884 ft | 504 kts | 327° |
| 2026-05-04 23:50 | 7.96773 | -90.63966 | 37886 ft | 505 kts | 327° |
| 2026-05-04 23:51 | 8.02678 | -90.67816 | 37889 ft | 506 kts | 327° |
| 2026-05-04 23:51 | 8.08595 | -90.71673 | 37888 ft | 506 kts | 327° |
| 2026-05-04 23:52 | 8.14500 | -90.75525 | 37888 ft | 505 kts | 327° |
| 2026-05-04 23:52 | 8.20405 | -90.79378 | 37888 ft | 505 kts | 327° |
| 2026-05-04 23:53 | 8.26302 | -90.83228 | 37887 ft | 504 kts | 327° |
| 2026-05-04 23:53 | 8.32169 | -90.87059 | 37884 ft | 505 kts | 327° |
| 2026-05-04 23:54 | 8.38067 | -90.90911 | 37883 ft | 504 kts | 327° |
| 2026-05-04 23:54 | 8.43969 | -90.94768 | 37881 ft | 505 kts | 327° |
| 2026-05-04 23:55 | 8.49825 | -90.98596 | 37884 ft | 504 kts | 327° |
| 2026-05-04 23:56 | 8.58642 | -91.04362 | 37882 ft | 502 kts | 327° |
| 2026-05-04 23:56 | 8.64518 | -91.08207 | 37884 ft | 503 kts | 327° |
| 2026-05-04 23:57 | 8.70408 | -91.12062 | 37887 ft | 504 kts | 326° |
| 2026-05-04 23:57 | 8.76302 | -91.15921 | 37886 ft | 504 kts | 326° |
| 2026-05-04 23:58 | 8.82191 | -91.19779 | 37889 ft | 505 kts | 326° |
| 2026-05-04 23:58 | 8.88053 | -91.23621 | 37889 ft | 505 kts | 326° |
| 2026-05-04 23:59 | 8.93959 | -91.27493 | 37887 ft | 505 kts | 326° |
| 2026-05-04 23:59 | 8.99864 | -91.31365 | 37889 ft | 505 kts | 326° |
| 2026-05-05 00:00 | 9.05765 | -91.35237 | 37886 ft | 505 kts | 326° |
| 2026-05-05 00:00 | 9.11619 | -91.39078 | 37880 ft | 505 kts | 326° |
| 2026-05-05 00:01 | 9.17513 | -91.42949 | 37879 ft | 505 kts | 326° |
| 2026-05-05 00:01 | 9.23414 | -91.46825 | 37886 ft | 505 kts | 326° |
| 2026-05-05 00:02 | 9.29301 | -91.50693 | 37887 ft | 503 kts | 326° |
| 2026-05-05 00:02 | 9.35174 | -91.54554 | 37881 ft | 503 kts | 326° |
| 2026-05-05 00:03 | 9.41055 | -91.58422 | 37888 ft | 504 kts | 326° |
| 2026-05-05 00:03 | 9.46912 | -91.62275 | 37886 ft | 504 kts | 326° |
| 2026-05-05 00:04 | 9.52800 | -91.66151 | 37892 ft | 504 kts | 326° |
| 2026-05-05 00:04 | 9.58676 | -91.70020 | 37886 ft | 503 kts | 326° |
| 2026-05-05 00:05 | 9.64548 | -91.73888 | 37887 ft | 503 kts | 326° |
| 2026-05-05 00:05 | 9.70427 | -91.77762 | 37892 ft | 504 kts | 326° |
| 2026-05-05 00:06 | 9.76306 | -91.81639 | 37891 ft | 504 kts | 326° |
| 2026-05-05 00:06 | 9.82187 | -91.85517 | 37889 ft | 504 kts | 326° |
| 2026-05-05 00:07 | 9.88020 | -91.89367 | 37888 ft | 503 kts | 326° |
| 2026-05-05 00:07 | 9.93890 | -91.93242 | 37886 ft | 503 kts | 326° |
| 2026-05-05 00:08 | 9.99758 | -91.97118 | 37887 ft | 503 kts | 326° |
| 2026-05-05 00:08 | 10.05617 | -92.00989 | 37890 ft | 502 kts | 326° |
| 2026-05-05 00:09 | 10.11473 | -92.04860 | 37890 ft | 502 kts | 326° |
| 2026-05-05 00:09 | 10.17334 | -92.08735 | 37885 ft | 502 kts | 326° |
| 2026-05-05 00:10 | 10.23189 | -92.12610 | 37885 ft | 502 kts | 326° |
| 2026-05-05 00:10 | 10.28992 | -92.16450 | 37888 ft | 501 kts | 326° |
| 2026-05-05 00:11 | 10.34821 | -92.20310 | 37889 ft | 500 kts | 326° |
| 2026-05-05 00:11 | 10.40644 | -92.24169 | 37887 ft | 500 kts | 326° |
| 2026-05-05 00:12 | 10.46460 | -92.28023 | 37886 ft | 498 kts | 326° |
| 2026-05-05 00:12 | 10.52263 | -92.31871 | 37885 ft | 498 kts | 326° |
| 2026-05-05 00:13 | 10.58075 | -92.35727 | 37882 ft | 497 kts | 326° |
| 2026-05-05 00:13 | 10.63873 | -92.39575 | 37884 ft | 497 kts | 326° |
| 2026-05-05 00:14 | 10.69626 | -92.43396 | 37884 ft | 497 kts | 326° |
| 2026-05-05 00:14 | 10.75420 | -92.47244 | 37883 ft | 498 kts | 326° |
| 2026-05-05 00:15 | 10.81214 | -92.51095 | 37889 ft | 498 kts | 326° |
| 2026-05-05 00:15 | 10.87006 | -92.54946 | 37886 ft | 497 kts | 326° |
| 2026-05-05 00:16 | 10.92810 | -92.58807 | 37887 ft | 496 kts | 326° |
| 2026-05-05 00:16 | 10.98584 | -92.62651 | 37888 ft | 496 kts | 326° |
| 2026-05-05 00:17 | 11.04313 | -92.66466 | 37886 ft | 495 kts | 326° |
| 2026-05-05 00:17 | 11.10085 | -92.70311 | 37883 ft | 496 kts | 326° |
| 2026-05-05 00:18 | 11.15857 | -92.74158 | 37883 ft | 495 kts | 326° |
| 2026-05-05 00:18 | 11.21626 | -92.78005 | 37885 ft | 496 kts | 326° |
| 2026-05-05 00:19 | 11.27401 | -92.81858 | 37885 ft | 497 kts | 326° |
| 2026-05-05 00:19 | 11.33187 | -92.85720 | 37890 ft | 497 kts | 326° |
| 2026-05-05 00:20 | 11.38964 | -92.89578 | 37892 ft | 496 kts | 326° |
| 2026-05-05 00:20 | 11.44734 | -92.93433 | 37891 ft | 496 kts | 326° |
| 2026-05-05 00:21 | 11.50518 | -92.97300 | 37891 ft | 496 kts | 326° |
| 2026-05-05 00:21 | 11.56253 | -93.01135 | 37888 ft | 495 kts | 326° |
| 2026-05-05 00:22 | 11.62014 | -93.04991 | 37887 ft | 495 kts | 326° |
| 2026-05-05 00:22 | 11.67775 | -93.08847 | 37893 ft | 495 kts | 326° |
| 2026-05-05 00:23 | 11.73539 | -93.12708 | 37889 ft | 495 kts | 326° |
| 2026-05-05 00:23 | 11.79315 | -93.16579 | 37891 ft | 495 kts | 326° |
| 2026-05-05 00:24 | 11.85072 | -93.20439 | 37889 ft | 494 kts | 326° |
| 2026-05-05 00:24 | 11.90824 | -93.24298 | 37889 ft | 494 kts | 326° |
| 2026-05-05 00:25 | 11.96567 | -93.28153 | 37887 ft | 494 kts | 326° |
| 2026-05-05 00:25 | 12.02270 | -93.31982 | 37888 ft | 493 kts | 326° |
| 2026-05-05 00:26 | 12.07995 | -93.35829 | 37886 ft | 493 kts | 326° |
| 2026-05-05 00:26 | 12.13736 | -93.39688 | 37884 ft | 493 kts | 326° |
| 2026-05-05 00:27 | 12.19459 | -93.43538 | 37886 ft | 493 kts | 326° |
| 2026-05-05 00:27 | 12.25186 | -93.47391 | 37887 ft | 493 kts | 326° |
| 2026-05-05 00:28 | 12.30924 | -93.51255 | 37885 ft | 494 kts | 326° |
| 2026-05-05 00:28 | 12.36636 | -93.55103 | 37890 ft | 494 kts | 326° |
| 2026-05-05 00:29 | 12.42409 | -93.58994 | 37889 ft | 494 kts | 326° |
| 2026-05-05 00:29 | 12.48145 | -93.62862 | 37887 ft | 494 kts | 326° |
| 2026-05-05 00:30 | 12.53841 | -93.66706 | 37890 ft | 493 kts | 326° |
| 2026-05-05 00:30 | 12.59573 | -93.70575 | 37889 ft | 494 kts | 326° |
| 2026-05-05 00:31 | 12.65310 | -93.74450 | 37891 ft | 493 kts | 326° |
| 2026-05-05 00:31 | 12.71037 | -93.78321 | 37892 ft | 493 kts | 326° |
| 2026-05-05 00:32 | 12.76766 | -93.82195 | 37888 ft | 493 kts | 326° |
| 2026-05-05 00:32 | 12.82493 | -93.86070 | 37889 ft | 493 kts | 326° |
| 2026-05-05 00:33 | 12.88182 | -93.89921 | 37889 ft | 493 kts | 326° |
| 2026-05-05 00:33 | 12.93915 | -93.93804 | 37891 ft | 494 kts | 326° |
| 2026-05-05 00:34 | 12.99647 | -93.97689 | 37891 ft | 493 kts | 326° |
| 2026-05-05 00:34 | 13.05372 | -94.01571 | 37888 ft | 493 kts | 326° |
| 2026-05-05 00:35 | 13.10129 | -94.04798 | 37887 ft | 493 kts | 326° |
| 2026-05-05 00:35 | 13.15850 | -94.08682 | 37885 ft | 493 kts | 326° |
| 2026-05-05 00:36 | 13.21561 | -94.12561 | 37882 ft | 492 kts | 326° |
| 2026-05-05 00:36 | 13.27225 | -94.16410 | 37883 ft | 492 kts | 326° |
| 2026-05-05 00:37 | 13.32931 | -94.20290 | 37884 ft | 492 kts | 325° |
| 2026-05-05 00:37 | 13.38632 | -94.24168 | 37880 ft | 491 kts | 325° |
| 2026-05-05 00:38 | 13.44337 | -94.28052 | 37880 ft | 492 kts | 325° |
| 2026-05-05 00:38 | 13.50010 | -94.31916 | 37878 ft | 493 kts | 325° |
| 2026-05-05 00:39 | 13.55727 | -94.35812 | 37880 ft | 493 kts | 325° |
| 2026-05-05 00:39 | 13.61448 | -94.39714 | 37882 ft | 493 kts | 325° |
| 2026-05-05 00:40 | 13.67154 | -94.43607 | 37879 ft | 492 kts | 325° |
| 2026-05-05 00:40 | 13.72861 | -94.47504 | 37877 ft | 492 kts | 325° |
| 2026-05-05 00:41 | 13.78518 | -94.51368 | 37876 ft | 492 kts | 325° |
| 2026-05-05 00:41 | 13.84223 | -94.55268 | 37880 ft | 492 kts | 325° |
| 2026-05-05 00:42 | 13.89924 | -94.59167 | 37884 ft | 492 kts | 325° |
| 2026-05-05 00:42 | 13.95619 | -94.63065 | 37878 ft | 491 kts | 325° |
| 2026-05-05 00:43 | 14.01263 | -94.66930 | 37879 ft | 490 kts | 325° |
| 2026-05-05 00:43 | 14.06945 | -94.70823 | 37878 ft | 490 kts | 325° |
| 2026-05-05 00:44 | 14.12442 | -94.74958 | 37882 ft | 489 kts | 321° |
| 2026-05-05 00:44 | 14.17896 | -94.79135 | 37885 ft | 489 kts | 323° |
| 2026-05-05 00:45 | 14.23385 | -94.83261 | 37885 ft | 488 kts | 322° |
| 2026-05-05 00:45 | 14.28820 | -94.87415 | 37887 ft | 495 kts | 322° |
| 2026-05-05 00:46 | 14.34465 | -94.91684 | 37887 ft | 510 kts | 322° |
| 2026-05-05 00:46 | 14.40201 | -94.96054 | 37889 ft | 513 kts | 322° |
| 2026-05-05 00:47 | 14.45942 | -95.00413 | 37886 ft | 512 kts | 322° |
| 2026-05-05 00:47 | 14.51633 | -95.04748 | 37887 ft | 511 kts | 322° |
| 2026-05-05 00:48 | 14.57353 | -95.09101 | 37890 ft | 511 kts | 322° |
| 2026-05-05 00:48 | 14.63061 | -95.13453 | 37890 ft | 510 kts | 322° |
| 2026-05-05 00:49 | 14.68759 | -95.17796 | 37888 ft | 509 kts | 322° |
| 2026-05-05 00:49 | 14.74438 | -95.22130 | 37887 ft | 505 kts | 322° |
| 2026-05-05 00:50 | 14.80021 | -95.26393 | 37881 ft | 501 kts | 322° |
| 2026-05-05 00:50 | 14.85620 | -95.30670 | 37872 ft | 500 kts | 322° |
| 2026-05-05 00:51 | 14.91211 | -95.34945 | 37866 ft | 499 kts | 322° |
| 2026-05-05 00:51 | 14.96787 | -95.39210 | 37873 ft | 498 kts | 322° |
| 2026-05-05 00:52 | 15.02349 | -95.43468 | 37869 ft | 497 kts | 322° |
| 2026-05-05 00:52 | 15.07868 | -95.47696 | 37868 ft | 496 kts | 322° |
| 2026-05-05 00:53 | 15.13413 | -95.51946 | 37871 ft | 496 kts | 322° |
| 2026-05-05 00:53 | 15.18963 | -95.56203 | 37869 ft | 496 kts | 322° |
| 2026-05-05 00:54 | 15.24502 | -95.60454 | 37870 ft | 495 kts | 322° |
| 2026-05-05 00:54 | 15.29992 | -95.64671 | 37870 ft | 495 kts | 322° |
| 2026-05-05 00:55 | 15.35527 | -95.68926 | 37872 ft | 496 kts | 322° |
| 2026-05-05 00:55 | 15.41071 | -95.73189 | 37876 ft | 496 kts | 322° |
| 2026-05-05 00:56 | 15.46611 | -95.77453 | 37876 ft | 495 kts | 322° |
| 2026-05-05 00:56 | 15.52100 | -95.81681 | 37875 ft | 494 kts | 322° |
| 2026-05-05 00:57 | 15.57618 | -95.85933 | 37873 ft | 494 kts | 322° |
| 2026-05-05 00:57 | 15.63136 | -95.90189 | 37880 ft | 494 kts | 322° |
| 2026-05-05 00:58 | 15.68656 | -95.94449 | 37892 ft | 495 kts | 322° |
| 2026-05-05 00:58 | 15.74185 | -95.98718 | 37910 ft | 495 kts | 322° |
| 2026-05-05 00:59 | 15.79672 | -96.02959 | 37919 ft | 495 kts | 322° |
| 2026-05-05 00:59 | 15.85192 | -96.07228 | 37926 ft | 494 kts | 322° |
| 2026-05-05 01:00 | 15.90699 | -96.11490 | 37931 ft | 494 kts | 322° |
| 2026-05-05 01:00 | 15.96204 | -96.15753 | 37938 ft | 493 kts | 322° |
| 2026-05-05 01:01 | 16.01668 | -96.19987 | 37953 ft | 493 kts | 322° |
| 2026-05-05 01:01 | 16.07170 | -96.24254 | 37983 ft | 494 kts | 322° |
| 2026-05-05 01:02 | 16.12676 | -96.28527 | 38009 ft | 494 kts | 322° |
| 2026-05-05 01:02 | 16.18174 | -96.32797 | 38024 ft | 494 kts | 322° |
| 2026-05-05 01:03 | 16.23636 | -96.37041 | 38026 ft | 493 kts | 322° |
| 2026-05-05 01:03 | 16.29133 | -96.41317 | 38032 ft | 493 kts | 322° |
| 2026-05-05 01:04 | 16.34626 | -96.45591 | 38028 ft | 493 kts | 322° |
| 2026-05-05 01:04 | 16.42845 | -96.51994 | 38021 ft | 491 kts | 322° |
| 2026-05-05 01:05 | 16.48284 | -96.56235 | 38011 ft | 492 kts | 322° |
| 2026-05-05 01:05 | 16.53758 | -96.60506 | 38003 ft | 491 kts | 322° |
| 2026-05-05 01:06 | 16.59235 | -96.64783 | 38005 ft | 493 kts | 322° |
| 2026-05-05 01:06 | 16.64739 | -96.69083 | 38004 ft | 496 kts | 322° |
| 2026-05-05 01:07 | 16.70238 | -96.73383 | 38041 ft | 498 kts | 322° |
| 2026-05-05 01:07 | 16.75776 | -96.77716 | 38074 ft | 497 kts | 322° |
| 2026-05-05 01:08 | 16.81312 | -96.82052 | 38096 ft | 497 kts | 322° |
| 2026-05-05 01:08 | 16.86842 | -96.86386 | 38103 ft | 496 kts | 322° |
| 2026-05-05 01:09 | 16.92319 | -96.90681 | 38100 ft | 495 kts | 322° |
| 2026-05-05 01:09 | 16.97844 | -96.95018 | 38088 ft | 498 kts | 322° |
| 2026-05-05 01:10 | 17.03380 | -96.99366 | 38064 ft | 498 kts | 322° |
| 2026-05-05 01:10 | 17.08918 | -97.03719 | 38026 ft | 498 kts | 322° |
| 2026-05-05 01:11 | 17.14415 | -97.08043 | 37993 ft | 498 kts | 322° |
| 2026-05-05 01:11 | 17.19948 | -97.12399 | 37992 ft | 498 kts | 322° |
| 2026-05-05 01:12 | 17.25482 | -97.16760 | 37988 ft | 498 kts | 322° |
| 2026-05-05 01:12 | 17.31018 | -97.21124 | 37993 ft | 498 kts | 322° |
| 2026-05-05 01:13 | 17.36548 | -97.25488 | 37993 ft | 497 kts | 322° |
| 2026-05-05 01:13 | 17.42016 | -97.29806 | 37991 ft | 495 kts | 322° |
| 2026-05-05 01:14 | 17.47521 | -97.34156 | 37992 ft | 496 kts | 322° |
| 2026-05-05 01:14 | 17.53021 | -97.38506 | 37988 ft | 495 kts | 322° |
| 2026-05-05 01:15 | 17.58513 | -97.42854 | 37985 ft | 494 kts | 322° |
| 2026-05-05 01:15 | 17.63996 | -97.47196 | 37986 ft | 494 kts | 322° |
| 2026-05-05 01:16 | 17.69443 | -97.51515 | 37970 ft | 494 kts | 322° |
| 2026-05-05 01:16 | 17.74927 | -97.55866 | 37966 ft | 494 kts | 322° |
| 2026-05-05 01:17 | 17.80410 | -97.60219 | 37954 ft | 494 kts | 322° |
| 2026-05-05 01:17 | 17.85894 | -97.64576 | 37938 ft | 495 kts | 322° |
| 2026-05-05 01:18 | 17.91344 | -97.68911 | 37931 ft | 494 kts | 322° |
| 2026-05-05 01:18 | 17.96825 | -97.73273 | 37918 ft | 495 kts | 322° |
| 2026-05-05 01:19 | 18.02310 | -97.77642 | 37905 ft | 496 kts | 322° |
| 2026-05-05 01:19 | 18.07803 | -97.82021 | 37894 ft | 495 kts | 322° |
| 2026-05-05 01:20 | 18.13258 | -97.86373 | 37876 ft | 496 kts | 322° |
| 2026-05-05 01:20 | 18.18742 | -97.90752 | 37856 ft | 489 kts | 322° |
| 2026-05-05 01:21 | 18.21413 | -97.92884 | 37834 ft | 476 kts | 322° |
| 2026-05-05 01:21 | 18.24025 | -97.94973 | 37825 ft | 469 kts | 322° |
| 2026-05-05 01:21 | 18.29213 | -97.99123 | 37835 ft | 469 kts | 322° |
| 2026-05-05 01:22 | 18.34361 | -98.03242 | 37402 ft | 465 kts | 322° |
| 2026-05-05 01:22 | 18.36951 | -98.05316 | 36552 ft | 469 kts | 322° |
| 2026-05-05 01:22 | 18.39541 | -98.07392 | 35908 ft | 468 kts | 322° |
| 2026-05-05 01:23 | 18.42131 | -98.09467 | 35227 ft | 468 kts | 322° |
| 2026-05-05 01:23 | 18.44727 | -98.11547 | 34528 ft | 469 kts | 322° |
| 2026-05-05 01:23 | 18.47332 | -98.13637 | 33804 ft | 472 kts | 322° |
| 2026-05-05 01:23 | 18.49946 | -98.15736 | 33010 ft | 473 kts | 322° |
| 2026-05-05 01:24 | 18.52571 | -98.17843 | 32221 ft | 476 kts | 322° |
| 2026-05-05 01:24 | 18.55178 | -98.19936 | 31410 ft | 480 kts | 322° |
| 2026-05-05 01:24 | 18.57846 | -98.22079 | 30570 ft | 485 kts | 323° |
| 2026-05-05 01:24 | 18.60544 | -98.24247 | 29621 ft | 490 kts | 323° |
| 2026-05-05 01:25 | 18.63260 | -98.26430 | 28657 ft | 491 kts | 324° |
| 2026-05-05 01:25 | 18.65975 | -98.28613 | 27704 ft | 491 kts | 323° |
| 2026-05-05 01:25 | 18.68513 | -98.31000 | 26770 ft | 489 kts | 314° |
| 2026-05-05 01:25 | 18.70570 | -98.33846 | 26015 ft | 486 kts | 303° |
| 2026-05-05 01:26 | 18.72061 | -98.36988 | 25791 ft | 472 kts | 292° |
| 2026-05-05 01:26 | 18.72974 | -98.40303 | 25697 ft | 474 kts | 282° |
| 2026-05-05 01:26 | 18.73628 | -98.43701 | 25615 ft | 483 kts | 283° |
| 2026-05-05 01:26 | 18.74274 | -98.47180 | 25567 ft | 483 kts | 282° |
| 2026-05-05 01:27 | 18.74891 | -98.50664 | 25511 ft | 480 kts | 282° |
| 2026-05-05 01:27 | 18.75500 | -98.54054 | 25375 ft | 460 kts | 282° |
| 2026-05-05 01:27 | 18.76109 | -98.57294 | 25356 ft | 439 kts | 285° |
| 2026-05-05 01:27 | 18.77151 | -98.60230 | 25206 ft | 422 kts | 300° |
| 2026-05-05 01:28 | 18.78853 | -98.62734 | 24659 ft | 420 kts | 315° |
| 2026-05-05 01:28 | 18.80981 | -98.64832 | 24116 ft | 417 kts | 321° |
| 2026-05-05 01:28 | 18.83191 | -98.66803 | 23576 ft | 415 kts | 321° |
| 2026-05-05 01:28 | 18.85318 | -98.68853 | 22926 ft | 413 kts | 317° |
| 2026-05-05 01:29 | 18.87336 | -98.70945 | 22231 ft | 411 kts | 317° |
| 2026-05-05 01:29 | 18.89396 | -98.73030 | 21546 ft | 409 kts | 319° |
| 2026-05-05 01:29 | 18.91484 | -98.75061 | 20882 ft | 406 kts | 319° |
| 2026-05-05 01:29 | 18.93551 | -98.77084 | 20241 ft | 404 kts | 318° |
| 2026-05-05 01:30 | 18.95584 | -98.79115 | 19568 ft | 401 kts | 318° |
| 2026-05-05 01:30 | 18.97607 | -98.81135 | 18902 ft | 399 kts | 319° |
| 2026-05-05 01:30 | 18.99627 | -98.83136 | 18241 ft | 397 kts | 319° |
| 2026-05-05 01:30 | 19.01636 | -98.85123 | 17509 ft | 394 kts | 319° |
| 2026-05-05 01:31 | 19.03598 | -98.87072 | 16788 ft | 391 kts | 318° |
| 2026-05-05 01:31 | 19.05572 | -98.89037 | 16071 ft | 388 kts | 318° |
| 2026-05-05 01:31 | 19.07513 | -98.90968 | 15657 ft | 372 kts | 318° |
| 2026-05-05 01:31 | 19.09210 | -98.92657 | 15362 ft | 339 kts | 318° |
| 2026-05-05 01:32 | 19.10847 | -98.94286 | 15086 ft | 309 kts | 318° |
| 2026-05-05 01:32 | 19.12354 | -98.95784 | 14811 ft | 286 kts | 318° |
| 2026-05-05 01:32 | 19.13755 | -98.97176 | 14490 ft | 270 kts | 318° |
| 2026-05-05 01:32 | 19.15104 | -98.98518 | 14114 ft | 263 kts | 318° |
| 2026-05-05 01:33 | 19.16420 | -98.99827 | 13785 ft | 265 kts | 318° |
| 2026-05-05 01:33 | 19.17761 | -99.01162 | 13446 ft | 263 kts | 318° |
| 2026-05-05 01:33 | 19.19089 | -99.02484 | 13125 ft | 261 kts | 318° |
| 2026-05-05 01:33 | 19.20407 | -99.03791 | 12816 ft | 259 kts | 317° |
| 2026-05-05 01:34 | 19.21714 | -99.05090 | 12488 ft | 257 kts | 317° |
| 2026-05-05 01:34 | 19.23013 | -99.06382 | 12172 ft | 256 kts | 317° |
| 2026-05-05 01:34 | 19.24290 | -99.07683 | 11825 ft | 255 kts | 312° |
| 2026-05-05 01:34 | 19.25317 | -99.09168 | 11703 ft | 238 kts | 306° |
| 2026-05-05 01:35 | 19.26320 | -99.10528 | 11406 ft | 230 kts | 309° |
| 2026-05-05 01:35 | 19.27294 | -99.11824 | 11056 ft | 228 kts | 308° |
| 2026-05-05 01:35 | 19.28251 | -99.13144 | 10801 ft | 217 kts | 307° |
| 2026-05-05 01:35 | 19.29130 | -99.14372 | 10556 ft | 196 kts | 307° |
| 2026-05-05 01:36 | 19.29935 | -99.15489 | 10082 ft | 190 kts | 307° |
| 2026-05-05 01:36 | 19.30707 | -99.16559 | 9899 ft | 177 kts | 306° |
| 2026-05-05 01:36 | 19.31478 | -99.17631 | 9904 ft | 190 kts | 306° |
| 2026-05-05 01:36 | 19.32388 | -99.18638 | 9885 ft | 190 kts | 323° |
| 2026-05-05 01:37 | 19.33582 | -99.19235 | 9908 ft | 193 kts | 343° |
| 2026-05-05 01:37 | 19.34935 | -99.19356 | 9749 ft | 197 kts | 5° |
| 2026-05-05 01:37 | 19.36223 | -99.18958 | 9551 ft | 195 kts | 26° |
| 2026-05-05 01:37 | 19.37286 | -99.18093 | 9391 ft | 194 kts | 48° |
| 2026-05-05 01:38 | 19.38026 | -99.16923 | 9246 ft | 186 kts | 61° |
| 2026-05-05 01:38 | 19.38686 | -99.15785 | 9048 ft | 178 kts | 64° |
| 2026-05-05 01:38 | 19.39290 | -99.14682 | 8898 ft | 164 kts | 65° |
| 2026-05-05 01:38 | 19.39875 | -99.13627 | 8858 ft | 171 kts | 65° |
| 2026-05-05 01:39 | 19.40482 | -99.12519 | 8589 ft | 175 kts | 64° |
| 2026-05-05 01:39 | 19.41100 | -99.11433 | 8203 ft | 167 kts | 62° |
| 2026-05-05 01:39 | 19.41707 | -99.10372 | 7867 ft | 171 kts | 62° |
| 2026-05-05 01:39 | 19.42291 | -99.09300 | 7590 ft | 168 kts | 60° |
| 2026-05-05 01:40 | 19.42888 | -99.08249 | 7349 ft | 165 kts | 59° |
| 2026-05-05 01:40 | 19.43393 | -99.07326 | 7309 ft | 112 kts | 51° |
| 2026-05-05 01:40 | 19.43708 | -99.06807 | 7309 ft | 54 kts | 61° |
| 2026-05-05 01:40 | 19.43816 | -99.06583 | 7308 ft | 25 kts | 58° |
| 2026-05-05 01:41 | 19.43937 | -99.06378 | 7308 ft | 34 kts | 59° |
| 2026-05-05 01:41 | 19.43978 | -99.06182 | 7308 ft | 25 kts | 92° |
| 2026-05-05 01:41 | 19.43933 | -99.06090 | 7308 ft | 9 kts | 180° |
| 2026-05-05 01:41 | 19.43864 | -99.06167 | 7308 ft | 23 kts | 239° |
| 2026-05-05 01:42 | 19.43773 | -99.06331 | 7308 ft | 26 kts | 239° |
| 2026-05-05 01:42 | 19.43684 | -99.06493 | 7308 ft | 25 kts | 239° |
| 2026-05-05 01:42 | 19.43596 | -99.06650 | 7308 ft | 24 kts | 238° |
| 2026-05-05 01:42 | 19.43467 | -99.06749 | 7308 ft | 23 kts | 207° |
| 2026-05-05 01:43 | 19.43342 | -99.06766 | 7308 ft | 18 kts | 142° |
| 2026-05-05 01:43 | 19.43244 | -99.06719 | 7308 ft | 12 kts | 195° |
| 2026-05-05 01:43 | 19.43208 | -99.06753 | 7308 ft | 0 kts | 227° |